<?xml version="1.0" encoding="UTF-8" standalone="no" ?>
<gpx xmlns="http://www.topografix.com/GPX/1/1" xmlns:xsi="http://www.w3.org/2001/XMLSchema-instance" xsi:schemaLocation="http://www.topografix.com/GPX/1/1 http://www.topografix.com/GPX/1/1/gpx.xsd" version="1.1" creator="VisuGPX - https://www.visugpx.com">
  <metadata>
    <name>Entre St-Front et Bonaguil</name>
    <desc><![CDATA[Une boucle vraiment rude, avec très peu de passages roulants.]]></desc>
  </metadata>
  <trk>
    <name><![CDATA[09-MARS-14 11:55:34]]></name>
    <trkseg>
      <trkpt lat="44.57579" lon="0.97229">
        <ele>103.48</ele>
        <time>2014-03-09T08:01:06Z</time>
      </trkpt>
      <trkpt lat="44.57579" lon="0.97231">
        <ele>104.92</ele>
        <time>2014-03-09T08:01:25Z</time>
      </trkpt>
      <trkpt lat="44.5758" lon="0.97232">
        <ele>105.88</ele>
        <time>2014-03-09T08:01:45Z</time>
      </trkpt>
      <trkpt lat="44.5758" lon="0.97235">
        <ele>107.32</ele>
        <time>2014-03-09T08:02:10Z</time>
      </trkpt>
      <trkpt lat="44.57579" lon="0.97236">
        <ele>107.32</ele>
        <time>2014-03-09T08:02:28Z</time>
      </trkpt>
      <trkpt lat="44.57579" lon="0.97232">
        <ele>108.29</ele>
        <time>2014-03-09T08:02:42Z</time>
      </trkpt>
      <trkpt lat="44.57579" lon="0.97235">
        <ele>107.32</ele>
        <time>2014-03-09T08:03:10Z</time>
      </trkpt>
      <trkpt lat="44.57579" lon="0.97233">
        <ele>106.36</ele>
        <time>2014-03-09T08:03:16Z</time>
      </trkpt>
      <trkpt lat="44.57569" lon="0.97263">
        <ele>104.92</ele>
        <time>2014-03-09T08:03:26Z</time>
      </trkpt>
      <trkpt lat="44.57552" lon="0.97269">
        <ele>104.92</ele>
        <time>2014-03-09T08:03:31Z</time>
      </trkpt>
      <trkpt lat="44.57559" lon="0.97286">
        <ele>103.96</ele>
        <time>2014-03-09T08:03:39Z</time>
      </trkpt>
      <trkpt lat="44.57638" lon="0.97304">
        <ele>102.52</ele>
        <time>2014-03-09T08:03:56Z</time>
      </trkpt>
      <trkpt lat="44.57681" lon="0.97295">
        <ele>104.92</ele>
        <time>2014-03-09T08:04:06Z</time>
      </trkpt>
      <trkpt lat="44.57712" lon="0.97279">
        <ele>107.81</ele>
        <time>2014-03-09T08:04:18Z</time>
      </trkpt>
      <trkpt lat="44.57714" lon="0.97276">
        <ele>107.32</ele>
        <time>2014-03-09T08:04:19Z</time>
      </trkpt>
      <trkpt lat="44.57706" lon="0.97218">
        <ele>106.36</ele>
        <time>2014-03-09T08:04:28Z</time>
      </trkpt>
      <trkpt lat="44.57699" lon="0.97174">
        <ele>105.88</ele>
        <time>2014-03-09T08:04:34Z</time>
      </trkpt>
      <trkpt lat="44.57698" lon="0.97137">
        <ele>105.88</ele>
        <time>2014-03-09T08:04:39Z</time>
      </trkpt>
      <trkpt lat="44.57672" lon="0.97121">
        <ele>105.88</ele>
        <time>2014-03-09T08:04:46Z</time>
      </trkpt>
      <trkpt lat="44.57662" lon="0.97118">
        <ele>105.88</ele>
        <time>2014-03-09T08:04:48Z</time>
      </trkpt>
      <trkpt lat="44.57587" lon="0.97103">
        <ele>104.44</ele>
        <time>2014-03-09T08:05:02Z</time>
      </trkpt>
      <trkpt lat="44.57582" lon="0.97102">
        <ele>104.44</ele>
        <time>2014-03-09T08:05:03Z</time>
      </trkpt>
      <trkpt lat="44.57565" lon="0.97105">
        <ele>103.96</ele>
        <time>2014-03-09T08:05:06Z</time>
      </trkpt>
      <trkpt lat="44.5752" lon="0.97147">
        <ele>102.52</ele>
        <time>2014-03-09T08:05:14Z</time>
      </trkpt>
      <trkpt lat="44.57483" lon="0.97215">
        <ele>103</ele>
        <time>2014-03-09T08:05:24Z</time>
      </trkpt>
      <trkpt lat="44.57486" lon="0.97267">
        <ele>104.92</ele>
        <time>2014-03-09T08:05:33Z</time>
      </trkpt>
      <trkpt lat="44.57522" lon="0.97275">
        <ele>105.4</ele>
        <time>2014-03-09T08:05:40Z</time>
      </trkpt>
      <trkpt lat="44.57543" lon="0.9727">
        <ele>105.4</ele>
        <time>2014-03-09T08:05:44Z</time>
      </trkpt>
      <trkpt lat="44.57566" lon="0.97246">
        <ele>105.4</ele>
        <time>2014-03-09T08:05:50Z</time>
      </trkpt>
      <trkpt lat="44.5758" lon="0.97233">
        <ele>105.88</ele>
        <time>2014-03-09T08:05:58Z</time>
      </trkpt>
      <trkpt lat="44.57578" lon="0.97236">
        <ele>106.36</ele>
        <time>2014-03-09T08:06:21Z</time>
      </trkpt>
      <trkpt lat="44.57577" lon="0.97236">
        <ele>103.96</ele>
        <time>2014-03-09T08:06:42Z</time>
      </trkpt>
      <trkpt lat="44.57578" lon="0.97238">
        <ele>105.88</ele>
        <time>2014-03-09T08:07:24Z</time>
      </trkpt>
      <trkpt lat="44.57578" lon="0.97239">
        <ele>106.36</ele>
        <time>2014-03-09T08:07:55Z</time>
      </trkpt>
      <trkpt lat="44.57579" lon="0.97239">
        <ele>105.88</ele>
        <time>2014-03-09T08:08:13Z</time>
      </trkpt>
      <trkpt lat="44.57578" lon="0.97239">
        <ele>105.88</ele>
        <time>2014-03-09T08:08:34Z</time>
      </trkpt>
      <trkpt lat="44.57578" lon="0.9724">
        <ele>107.32</ele>
        <time>2014-03-09T08:08:56Z</time>
      </trkpt>
      <trkpt lat="44.57577" lon="0.9724">
        <ele>105.88</ele>
        <time>2014-03-09T08:09:15Z</time>
      </trkpt>
      <trkpt lat="44.5757" lon="0.97247">
        <ele>106.36</ele>
        <time>2014-03-09T08:09:22Z</time>
      </trkpt>
      <trkpt lat="44.57565" lon="0.97251">
        <ele>106.36</ele>
        <time>2014-03-09T08:09:28Z</time>
      </trkpt>
      <trkpt lat="44.57558" lon="0.97252">
        <ele>106.36</ele>
        <time>2014-03-09T08:09:33Z</time>
      </trkpt>
      <trkpt lat="44.5754" lon="0.97271">
        <ele>105.88</ele>
        <time>2014-03-09T08:09:47Z</time>
      </trkpt>
      <trkpt lat="44.57539" lon="0.97272">
        <ele>105.88</ele>
        <time>2014-03-09T08:09:48Z</time>
      </trkpt>
      <trkpt lat="44.57525" lon="0.97275">
        <ele>106.36</ele>
        <time>2014-03-09T08:10:00Z</time>
      </trkpt>
      <trkpt lat="44.57514" lon="0.97273">
        <ele>106.84</ele>
        <time>2014-03-09T08:10:06Z</time>
      </trkpt>
      <trkpt lat="44.57474" lon="0.97271">
        <ele>108.29</ele>
        <time>2014-03-09T08:10:23Z</time>
      </trkpt>
      <trkpt lat="44.57478" lon="0.97305">
        <ele>108.29</ele>
        <time>2014-03-09T08:10:34Z</time>
      </trkpt>
      <trkpt lat="44.5749" lon="0.97365">
        <ele>106.84</ele>
        <time>2014-03-09T08:10:46Z</time>
      </trkpt>
      <trkpt lat="44.57504" lon="0.97455">
        <ele>106.84</ele>
        <time>2014-03-09T08:11:01Z</time>
      </trkpt>
      <trkpt lat="44.57503" lon="0.97554">
        <ele>108.29</ele>
        <time>2014-03-09T08:11:19Z</time>
      </trkpt>
      <trkpt lat="44.57509" lon="0.97643">
        <ele>111.17</ele>
        <time>2014-03-09T08:11:38Z</time>
      </trkpt>
      <trkpt lat="44.57533" lon="0.97726">
        <ele>112.61</ele>
        <time>2014-03-09T08:11:58Z</time>
      </trkpt>
      <trkpt lat="44.57554" lon="0.97781">
        <ele>112.13</ele>
        <time>2014-03-09T08:12:12Z</time>
      </trkpt>
      <trkpt lat="44.57586" lon="0.97847">
        <ele>113.09</ele>
        <time>2014-03-09T08:12:30Z</time>
      </trkpt>
      <trkpt lat="44.57587" lon="0.97851">
        <ele>113.09</ele>
        <time>2014-03-09T08:12:31Z</time>
      </trkpt>
      <trkpt lat="44.57557" lon="0.97877">
        <ele>113.57</ele>
        <time>2014-03-09T08:12:43Z</time>
      </trkpt>
      <trkpt lat="44.57511" lon="0.97881">
        <ele>116.94</ele>
        <time>2014-03-09T08:12:59Z</time>
      </trkpt>
      <trkpt lat="44.57509" lon="0.97882">
        <ele>117.42</ele>
        <time>2014-03-09T08:13:00Z</time>
      </trkpt>
      <trkpt lat="44.57502" lon="0.97873">
        <ele>117.9</ele>
        <time>2014-03-09T08:13:05Z</time>
      </trkpt>
      <trkpt lat="44.5747" lon="0.97783">
        <ele>117.9</ele>
        <time>2014-03-09T08:13:26Z</time>
      </trkpt>
      <trkpt lat="44.57439" lon="0.97695">
        <ele>117.9</ele>
        <time>2014-03-09T08:13:45Z</time>
      </trkpt>
      <trkpt lat="44.57434" lon="0.97681">
        <ele>117.9</ele>
        <time>2014-03-09T08:13:49Z</time>
      </trkpt>
      <trkpt lat="44.57425" lon="0.97684">
        <ele>118.38</ele>
        <time>2014-03-09T08:13:54Z</time>
      </trkpt>
      <trkpt lat="44.57399" lon="0.97741">
        <ele>122.22</ele>
        <time>2014-03-09T08:14:11Z</time>
      </trkpt>
      <trkpt lat="44.5738" lon="0.97803">
        <ele>126.07</ele>
        <time>2014-03-09T08:14:29Z</time>
      </trkpt>
      <trkpt lat="44.57382" lon="0.97871">
        <ele>127.99</ele>
        <time>2014-03-09T08:14:46Z</time>
      </trkpt>
      <trkpt lat="44.57382" lon="0.97878">
        <ele>128.47</ele>
        <time>2014-03-09T08:14:48Z</time>
      </trkpt>
      <trkpt lat="44.57376" lon="0.97883">
        <ele>129.92</ele>
        <time>2014-03-09T08:14:52Z</time>
      </trkpt>
      <trkpt lat="44.57353" lon="0.9791">
        <ele>133.28</ele>
        <time>2014-03-09T08:15:06Z</time>
      </trkpt>
      <trkpt lat="44.57346" lon="0.97954">
        <ele>139.05</ele>
        <time>2014-03-09T08:15:21Z</time>
      </trkpt>
      <trkpt lat="44.57342" lon="0.97983">
        <ele>143.37</ele>
        <time>2014-03-09T08:15:32Z</time>
      </trkpt>
      <trkpt lat="44.57338" lon="0.98013">
        <ele>151.06</ele>
        <time>2014-03-09T08:15:45Z</time>
      </trkpt>
      <trkpt lat="44.57331" lon="0.98053">
        <ele>156.35</ele>
        <time>2014-03-09T08:16:01Z</time>
      </trkpt>
      <trkpt lat="44.57328" lon="0.98068">
        <ele>158.27</ele>
        <time>2014-03-09T08:16:07Z</time>
      </trkpt>
      <trkpt lat="44.57324" lon="0.98108">
        <ele>164.52</ele>
        <time>2014-03-09T08:16:21Z</time>
      </trkpt>
      <trkpt lat="44.57317" lon="0.98152">
        <ele>168.85</ele>
        <time>2014-03-09T08:16:37Z</time>
      </trkpt>
      <trkpt lat="44.57304" lon="0.98193">
        <ele>162.12</ele>
        <time>2014-03-09T08:16:51Z</time>
      </trkpt>
      <trkpt lat="44.5729" lon="0.98231">
        <ele>161.64</ele>
        <time>2014-03-09T08:17:07Z</time>
      </trkpt>
      <trkpt lat="44.57269" lon="0.98238">
        <ele>166.93</ele>
        <time>2014-03-09T08:17:21Z</time>
      </trkpt>
      <trkpt lat="44.57268" lon="0.98239">
        <ele>167.41</ele>
        <time>2014-03-09T08:17:22Z</time>
      </trkpt>
      <trkpt lat="44.57264" lon="0.98243">
        <ele>167.89</ele>
        <time>2014-03-09T08:17:25Z</time>
      </trkpt>
      <trkpt lat="44.57252" lon="0.98271">
        <ele>165.48</ele>
        <time>2014-03-09T08:17:34Z</time>
      </trkpt>
      <trkpt lat="44.57235" lon="0.98309">
        <ele>163.08</ele>
        <time>2014-03-09T08:17:40Z</time>
      </trkpt>
      <trkpt lat="44.57233" lon="0.98341">
        <ele>161.64</ele>
        <time>2014-03-09T08:17:45Z</time>
      </trkpt>
      <trkpt lat="44.57239" lon="0.98359">
        <ele>160.2</ele>
        <time>2014-03-09T08:17:50Z</time>
      </trkpt>
      <trkpt lat="44.57238" lon="0.98365">
        <ele>159.72</ele>
        <time>2014-03-09T08:18:05Z</time>
      </trkpt>
      <trkpt lat="44.57238" lon="0.98387">
        <ele>162.6</ele>
        <time>2014-03-09T08:18:13Z</time>
      </trkpt>
      <trkpt lat="44.57232" lon="0.98421">
        <ele>167.89</ele>
        <time>2014-03-09T08:18:27Z</time>
      </trkpt>
      <trkpt lat="44.57229" lon="0.98458">
        <ele>169.81</ele>
        <time>2014-03-09T08:18:42Z</time>
      </trkpt>
      <trkpt lat="44.57228" lon="0.98469">
        <ele>170.29</ele>
        <time>2014-03-09T08:18:47Z</time>
      </trkpt>
      <trkpt lat="44.57223" lon="0.98508">
        <ele>172.69</ele>
        <time>2014-03-09T08:19:03Z</time>
      </trkpt>
      <trkpt lat="44.5722" lon="0.9855">
        <ele>175.1</ele>
        <time>2014-03-09T08:19:19Z</time>
      </trkpt>
      <trkpt lat="44.57216" lon="0.98599">
        <ele>174.62</ele>
        <time>2014-03-09T08:19:36Z</time>
      </trkpt>
      <trkpt lat="44.57213" lon="0.98623">
        <ele>173.66</ele>
        <time>2014-03-09T08:19:46Z</time>
      </trkpt>
      <trkpt lat="44.57212" lon="0.98651">
        <ele>173.66</ele>
        <time>2014-03-09T08:19:55Z</time>
      </trkpt>
      <trkpt lat="44.5721" lon="0.98661">
        <ele>173.17</ele>
        <time>2014-03-09T08:19:57Z</time>
      </trkpt>
      <trkpt lat="44.57204" lon="0.98697">
        <ele>171.73</ele>
        <time>2014-03-09T08:20:03Z</time>
      </trkpt>
      <trkpt lat="44.5719" lon="0.9873">
        <ele>170.29</ele>
        <time>2014-03-09T08:20:08Z</time>
      </trkpt>
      <trkpt lat="44.57168" lon="0.98758">
        <ele>168.37</ele>
        <time>2014-03-09T08:20:12Z</time>
      </trkpt>
      <trkpt lat="44.57155" lon="0.98844">
        <ele>164.04</ele>
        <time>2014-03-09T08:20:19Z</time>
      </trkpt>
      <trkpt lat="44.57157" lon="0.98857">
        <ele>163.56</ele>
        <time>2014-03-09T08:20:20Z</time>
      </trkpt>
      <trkpt lat="44.57165" lon="0.98946">
        <ele>165.96</ele>
        <time>2014-03-09T08:20:30Z</time>
      </trkpt>
      <trkpt lat="44.5717" lon="0.99053">
        <ele>165</ele>
        <time>2014-03-09T08:20:44Z</time>
      </trkpt>
      <trkpt lat="44.57166" lon="0.99082">
        <ele>162.12</ele>
        <time>2014-03-09T08:20:54Z</time>
      </trkpt>
      <trkpt lat="44.57166" lon="0.99083">
        <ele>162.12</ele>
        <time>2014-03-09T08:20:57Z</time>
      </trkpt>
      <trkpt lat="44.57139" lon="0.99109">
        <ele>160.68</ele>
        <time>2014-03-09T08:21:05Z</time>
      </trkpt>
      <trkpt lat="44.57082" lon="0.9918">
        <ele>152.03</ele>
        <time>2014-03-09T08:21:15Z</time>
      </trkpt>
      <trkpt lat="44.57005" lon="0.9928">
        <ele>139.05</ele>
        <time>2014-03-09T08:21:27Z</time>
      </trkpt>
      <trkpt lat="44.56967" lon="0.99301">
        <ele>137.61</ele>
        <time>2014-03-09T08:21:34Z</time>
      </trkpt>
      <trkpt lat="44.56945" lon="0.99332">
        <ele>139.05</ele>
        <time>2014-03-09T08:21:41Z</time>
      </trkpt>
      <trkpt lat="44.56925" lon="0.99322">
        <ele>140.49</ele>
        <time>2014-03-09T08:21:50Z</time>
      </trkpt>
      <trkpt lat="44.56888" lon="0.99295">
        <ele>140.49</ele>
        <time>2014-03-09T08:22:04Z</time>
      </trkpt>
      <trkpt lat="44.56858" lon="0.99309">
        <ele>143.37</ele>
        <time>2014-03-09T08:22:16Z</time>
      </trkpt>
      <trkpt lat="44.56837" lon="0.99325">
        <ele>149.14</ele>
        <time>2014-03-09T08:22:29Z</time>
      </trkpt>
      <trkpt lat="44.56819" lon="0.99338">
        <ele>153.47</ele>
        <time>2014-03-09T08:22:41Z</time>
      </trkpt>
      <trkpt lat="44.56813" lon="0.99342">
        <ele>154.91</ele>
        <time>2014-03-09T08:22:45Z</time>
      </trkpt>
      <trkpt lat="44.56789" lon="0.99341">
        <ele>154.43</ele>
        <time>2014-03-09T08:22:58Z</time>
      </trkpt>
      <trkpt lat="44.56758" lon="0.99316">
        <ele>152.51</ele>
        <time>2014-03-09T08:23:12Z</time>
      </trkpt>
      <trkpt lat="44.56735" lon="0.99283">
        <ele>149.62</ele>
        <time>2014-03-09T08:23:24Z</time>
      </trkpt>
      <trkpt lat="44.56711" lon="0.99251">
        <ele>149.14</ele>
        <time>2014-03-09T08:23:36Z</time>
      </trkpt>
      <trkpt lat="44.56703" lon="0.99249">
        <ele>149.62</ele>
        <time>2014-03-09T08:23:39Z</time>
      </trkpt>
      <trkpt lat="44.56674" lon="0.99235">
        <ele>153.95</ele>
        <time>2014-03-09T08:23:53Z</time>
      </trkpt>
      <trkpt lat="44.56652" lon="0.99223">
        <ele>158.27</ele>
        <time>2014-03-09T08:24:05Z</time>
      </trkpt>
      <trkpt lat="44.56642" lon="0.99219">
        <ele>161.16</ele>
        <time>2014-03-09T08:24:12Z</time>
      </trkpt>
      <trkpt lat="44.56615" lon="0.99213">
        <ele>168.37</ele>
        <time>2014-03-09T08:24:28Z</time>
      </trkpt>
      <trkpt lat="44.56597" lon="0.99213">
        <ele>173.66</ele>
        <time>2014-03-09T08:24:39Z</time>
      </trkpt>
      <trkpt lat="44.56581" lon="0.99228">
        <ele>180.38</ele>
        <time>2014-03-09T08:24:54Z</time>
      </trkpt>
      <trkpt lat="44.56572" lon="0.99243">
        <ele>181.83</ele>
        <time>2014-03-09T08:25:04Z</time>
      </trkpt>
      <trkpt lat="44.56569" lon="0.99248">
        <ele>182.31</ele>
        <time>2014-03-09T08:25:07Z</time>
      </trkpt>
      <trkpt lat="44.5656" lon="0.99268">
        <ele>184.71</ele>
        <time>2014-03-09T08:25:18Z</time>
      </trkpt>
      <trkpt lat="44.56558" lon="0.99275">
        <ele>185.67</ele>
        <time>2014-03-09T08:25:21Z</time>
      </trkpt>
      <trkpt lat="44.56554" lon="0.99284">
        <ele>186.63</ele>
        <time>2014-03-09T08:25:25Z</time>
      </trkpt>
      <trkpt lat="44.56538" lon="0.99303">
        <ele>188.56</ele>
        <time>2014-03-09T08:25:37Z</time>
      </trkpt>
      <trkpt lat="44.56511" lon="0.99333">
        <ele>188.56</ele>
        <time>2014-03-09T08:25:49Z</time>
      </trkpt>
      <trkpt lat="44.56481" lon="0.99377">
        <ele>190</ele>
        <time>2014-03-09T08:26:03Z</time>
      </trkpt>
      <trkpt lat="44.56479" lon="0.99379">
        <ele>190</ele>
        <time>2014-03-09T08:26:05Z</time>
      </trkpt>
      <trkpt lat="44.56447" lon="0.99386">
        <ele>182.79</ele>
        <time>2014-03-09T08:26:23Z</time>
      </trkpt>
      <trkpt lat="44.5643" lon="0.99397">
        <ele>180.38</ele>
        <time>2014-03-09T08:26:38Z</time>
      </trkpt>
      <trkpt lat="44.56428" lon="0.99396">
        <ele>178.46</ele>
        <time>2014-03-09T08:26:58Z</time>
      </trkpt>
      <trkpt lat="44.56422" lon="0.99404">
        <ele>177.98</ele>
        <time>2014-03-09T08:27:17Z</time>
      </trkpt>
      <trkpt lat="44.56419" lon="0.99407">
        <ele>178.46</ele>
        <time>2014-03-09T08:27:20Z</time>
      </trkpt>
      <trkpt lat="44.56394" lon="0.99415">
        <ele>181.35</ele>
        <time>2014-03-09T08:27:36Z</time>
      </trkpt>
      <trkpt lat="44.56382" lon="0.99399">
        <ele>182.31</ele>
        <time>2014-03-09T08:27:44Z</time>
      </trkpt>
      <trkpt lat="44.56344" lon="0.99376">
        <ele>184.71</ele>
        <time>2014-03-09T08:28:01Z</time>
      </trkpt>
      <trkpt lat="44.56313" lon="0.99345">
        <ele>185.67</ele>
        <time>2014-03-09T08:28:15Z</time>
      </trkpt>
      <trkpt lat="44.56287" lon="0.99318">
        <ele>187.59</ele>
        <time>2014-03-09T08:28:28Z</time>
      </trkpt>
      <trkpt lat="44.5625" lon="0.99297">
        <ele>185.19</ele>
        <time>2014-03-09T08:28:44Z</time>
      </trkpt>
      <trkpt lat="44.56219" lon="0.99299">
        <ele>189.04</ele>
        <time>2014-03-09T08:28:58Z</time>
      </trkpt>
      <trkpt lat="44.56191" lon="0.99307">
        <ele>192.4</ele>
        <time>2014-03-09T08:29:11Z</time>
      </trkpt>
      <trkpt lat="44.56166" lon="0.9932">
        <ele>194.8</ele>
        <time>2014-03-09T08:29:24Z</time>
      </trkpt>
      <trkpt lat="44.56131" lon="0.99326">
        <ele>197.69</ele>
        <time>2014-03-09T08:29:40Z</time>
      </trkpt>
      <trkpt lat="44.56102" lon="0.99332">
        <ele>200.57</ele>
        <time>2014-03-09T08:29:54Z</time>
      </trkpt>
      <trkpt lat="44.56068" lon="0.99335">
        <ele>204.42</ele>
        <time>2014-03-09T08:30:10Z</time>
      </trkpt>
      <trkpt lat="44.56034" lon="0.99324">
        <ele>206.34</ele>
        <time>2014-03-09T08:30:26Z</time>
      </trkpt>
      <trkpt lat="44.56002" lon="0.99308">
        <ele>207.3</ele>
        <time>2014-03-09T08:30:40Z</time>
      </trkpt>
      <trkpt lat="44.55978" lon="0.99281">
        <ele>208.74</ele>
        <time>2014-03-09T08:30:53Z</time>
      </trkpt>
      <trkpt lat="44.55946" lon="0.99262">
        <ele>210.67</ele>
        <time>2014-03-09T08:31:07Z</time>
      </trkpt>
      <trkpt lat="44.55908" lon="0.99237">
        <ele>212.11</ele>
        <time>2014-03-09T08:31:23Z</time>
      </trkpt>
      <trkpt lat="44.55906" lon="0.99237">
        <ele>210.67</ele>
        <time>2014-03-09T08:31:33Z</time>
      </trkpt>
      <trkpt lat="44.55906" lon="0.99233">
        <ele>211.63</ele>
        <time>2014-03-09T08:31:53Z</time>
      </trkpt>
      <trkpt lat="44.55905" lon="0.99235">
        <ele>211.15</ele>
        <time>2014-03-09T08:32:14Z</time>
      </trkpt>
      <trkpt lat="44.55905" lon="0.99236">
        <ele>212.59</ele>
        <time>2014-03-09T08:32:37Z</time>
      </trkpt>
      <trkpt lat="44.55903" lon="0.99235">
        <ele>211.15</ele>
        <time>2014-03-09T08:32:42Z</time>
      </trkpt>
      <trkpt lat="44.55891" lon="0.99262">
        <ele>211.15</ele>
        <time>2014-03-09T08:32:52Z</time>
      </trkpt>
      <trkpt lat="44.55857" lon="0.99292">
        <ele>210.67</ele>
        <time>2014-03-09T08:33:02Z</time>
      </trkpt>
      <trkpt lat="44.55826" lon="0.99299">
        <ele>210.19</ele>
        <time>2014-03-09T08:33:08Z</time>
      </trkpt>
      <trkpt lat="44.5579" lon="0.99328">
        <ele>211.15</ele>
        <time>2014-03-09T08:33:16Z</time>
      </trkpt>
      <trkpt lat="44.55773" lon="0.99363">
        <ele>212.59</ele>
        <time>2014-03-09T08:33:22Z</time>
      </trkpt>
      <trkpt lat="44.55757" lon="0.99384">
        <ele>213.55</ele>
        <time>2014-03-09T08:33:26Z</time>
      </trkpt>
      <trkpt lat="44.55747" lon="0.99397">
        <ele>213.55</ele>
        <time>2014-03-09T08:33:28Z</time>
      </trkpt>
      <trkpt lat="44.55732" lon="0.99437">
        <ele>213.07</ele>
        <time>2014-03-09T08:33:33Z</time>
      </trkpt>
      <trkpt lat="44.55734" lon="0.99537">
        <ele>206.82</ele>
        <time>2014-03-09T08:33:44Z</time>
      </trkpt>
      <trkpt lat="44.55718" lon="0.99548">
        <ele>204.42</ele>
        <time>2014-03-09T08:33:50Z</time>
      </trkpt>
      <trkpt lat="44.55684" lon="0.99529">
        <ele>202.01</ele>
        <time>2014-03-09T08:34:00Z</time>
      </trkpt>
      <trkpt lat="44.55665" lon="0.99544">
        <ele>202.49</ele>
        <time>2014-03-09T08:34:07Z</time>
      </trkpt>
      <trkpt lat="44.55651" lon="0.99563">
        <ele>203.46</ele>
        <time>2014-03-09T08:34:13Z</time>
      </trkpt>
      <trkpt lat="44.5564" lon="0.99578">
        <ele>203.46</ele>
        <time>2014-03-09T08:34:19Z</time>
      </trkpt>
      <trkpt lat="44.55613" lon="0.9961">
        <ele>206.82</ele>
        <time>2014-03-09T08:34:32Z</time>
      </trkpt>
      <trkpt lat="44.55589" lon="0.99652">
        <ele>212.11</ele>
        <time>2014-03-09T08:34:45Z</time>
      </trkpt>
      <trkpt lat="44.55572" lon="0.99695">
        <ele>215.95</ele>
        <time>2014-03-09T08:34:58Z</time>
      </trkpt>
      <trkpt lat="44.5555" lon="0.99743">
        <ele>217.4</ele>
        <time>2014-03-09T08:35:12Z</time>
      </trkpt>
      <trkpt lat="44.55526" lon="0.99786">
        <ele>218.36</ele>
        <time>2014-03-09T08:35:24Z</time>
      </trkpt>
      <trkpt lat="44.55504" lon="0.99825">
        <ele>216.91</ele>
        <time>2014-03-09T08:35:36Z</time>
      </trkpt>
      <trkpt lat="44.55479" lon="0.99862">
        <ele>214.03</ele>
        <time>2014-03-09T08:35:48Z</time>
      </trkpt>
      <trkpt lat="44.55442" lon="0.99882">
        <ele>215.95</ele>
        <time>2014-03-09T08:36:01Z</time>
      </trkpt>
      <trkpt lat="44.55406" lon="0.99912">
        <ele>215.95</ele>
        <time>2014-03-09T08:36:13Z</time>
      </trkpt>
      <trkpt lat="44.55378" lon="0.99935">
        <ele>215.95</ele>
        <time>2014-03-09T08:36:22Z</time>
      </trkpt>
      <trkpt lat="44.55357" lon="0.99952">
        <ele>214.99</ele>
        <time>2014-03-09T08:36:28Z</time>
      </trkpt>
      <trkpt lat="44.55327" lon="0.99998">
        <ele>215.47</ele>
        <time>2014-03-09T08:36:39Z</time>
      </trkpt>
      <trkpt lat="44.55295" lon="1.0005">
        <ele>212.59</ele>
        <time>2014-03-09T08:36:53Z</time>
      </trkpt>
      <trkpt lat="44.553" lon="1.00058">
        <ele>211.15</ele>
        <time>2014-03-09T08:36:58Z</time>
      </trkpt>
      <trkpt lat="44.55303" lon="1.00062">
        <ele>209.22</ele>
        <time>2014-03-09T08:37:11Z</time>
      </trkpt>
      <trkpt lat="44.5531" lon="1.00066">
        <ele>207.3</ele>
        <time>2014-03-09T08:37:32Z</time>
      </trkpt>
      <trkpt lat="44.55348" lon="1.00099">
        <ele>204.9</ele>
        <time>2014-03-09T08:37:44Z</time>
      </trkpt>
      <trkpt lat="44.55383" lon="1.00134">
        <ele>203.46</ele>
        <time>2014-03-09T08:37:52Z</time>
      </trkpt>
      <trkpt lat="44.55434" lon="1.00157">
        <ele>201.05</ele>
        <time>2014-03-09T08:38:00Z</time>
      </trkpt>
      <trkpt lat="44.55478" lon="1.00221">
        <ele>196.25</ele>
        <time>2014-03-09T08:38:08Z</time>
      </trkpt>
      <trkpt lat="44.55504" lon="1.00243">
        <ele>192.88</ele>
        <time>2014-03-09T08:38:12Z</time>
      </trkpt>
      <trkpt lat="44.55549" lon="1.00245">
        <ele>188.08</ele>
        <time>2014-03-09T08:38:17Z</time>
      </trkpt>
      <trkpt lat="44.55605" lon="1.00275">
        <ele>185.67</ele>
        <time>2014-03-09T08:38:24Z</time>
      </trkpt>
      <trkpt lat="44.55616" lon="1.0029">
        <ele>185.67</ele>
        <time>2014-03-09T08:38:26Z</time>
      </trkpt>
      <trkpt lat="44.5563" lon="1.00312">
        <ele>187.11</ele>
        <time>2014-03-09T08:38:29Z</time>
      </trkpt>
      <trkpt lat="44.55639" lon="1.00324">
        <ele>187.59</ele>
        <time>2014-03-09T08:38:31Z</time>
      </trkpt>
      <trkpt lat="44.55677" lon="1.0035">
        <ele>191.44</ele>
        <time>2014-03-09T08:38:43Z</time>
      </trkpt>
      <trkpt lat="44.55691" lon="1.00357">
        <ele>193.36</ele>
        <time>2014-03-09T08:38:52Z</time>
      </trkpt>
      <trkpt lat="44.55723" lon="1.0039">
        <ele>190.96</ele>
        <time>2014-03-09T08:39:04Z</time>
      </trkpt>
      <trkpt lat="44.55758" lon="1.00449">
        <ele>191.92</ele>
        <time>2014-03-09T08:39:19Z</time>
      </trkpt>
      <trkpt lat="44.55803" lon="1.00509">
        <ele>196.25</ele>
        <time>2014-03-09T08:39:36Z</time>
      </trkpt>
      <trkpt lat="44.55805" lon="1.00512">
        <ele>196.25</ele>
        <time>2014-03-09T08:39:37Z</time>
      </trkpt>
      <trkpt lat="44.55785" lon="1.00545">
        <ele>195.28</ele>
        <time>2014-03-09T08:39:46Z</time>
      </trkpt>
      <trkpt lat="44.55783" lon="1.00549">
        <ele>195.28</ele>
        <time>2014-03-09T08:39:47Z</time>
      </trkpt>
      <trkpt lat="44.55773" lon="1.00569">
        <ele>193.36</ele>
        <time>2014-03-09T08:39:51Z</time>
      </trkpt>
      <trkpt lat="44.55757" lon="1.006">
        <ele>190.96</ele>
        <time>2014-03-09T08:39:59Z</time>
      </trkpt>
      <trkpt lat="44.55754" lon="1.00606">
        <ele>190.48</ele>
        <time>2014-03-09T08:40:01Z</time>
      </trkpt>
      <trkpt lat="44.55733" lon="1.00638">
        <ele>187.11</ele>
        <time>2014-03-09T08:40:13Z</time>
      </trkpt>
      <trkpt lat="44.5571" lon="1.00666">
        <ele>184.71</ele>
        <time>2014-03-09T08:40:24Z</time>
      </trkpt>
      <trkpt lat="44.55698" lon="1.00685">
        <ele>183.27</ele>
        <time>2014-03-09T08:40:31Z</time>
      </trkpt>
      <trkpt lat="44.55697" lon="1.0069">
        <ele>183.27</ele>
        <time>2014-03-09T08:40:33Z</time>
      </trkpt>
      <trkpt lat="44.55679" lon="1.0072">
        <ele>182.31</ele>
        <time>2014-03-09T08:40:46Z</time>
      </trkpt>
      <trkpt lat="44.55661" lon="1.00751">
        <ele>178.46</ele>
        <time>2014-03-09T08:40:58Z</time>
      </trkpt>
      <trkpt lat="44.55652" lon="1.00767">
        <ele>176.06</ele>
        <time>2014-03-09T08:41:08Z</time>
      </trkpt>
      <trkpt lat="44.55646" lon="1.00775">
        <ele>175.58</ele>
        <time>2014-03-09T08:41:12Z</time>
      </trkpt>
      <trkpt lat="44.55626" lon="1.00793">
        <ele>173.17</ele>
        <time>2014-03-09T08:41:24Z</time>
      </trkpt>
      <trkpt lat="44.55625" lon="1.008">
        <ele>176.54</ele>
        <time>2014-03-09T08:41:38Z</time>
      </trkpt>
      <trkpt lat="44.55625" lon="1.00801">
        <ele>177.98</ele>
        <time>2014-03-09T08:41:56Z</time>
      </trkpt>
      <trkpt lat="44.55626" lon="1.00802">
        <ele>178.94</ele>
        <time>2014-03-09T08:42:19Z</time>
      </trkpt>
      <trkpt lat="44.55629" lon="1.00805">
        <ele>179.42</ele>
        <time>2014-03-09T08:42:36Z</time>
      </trkpt>
      <trkpt lat="44.55628" lon="1.00803">
        <ele>180.38</ele>
        <time>2014-03-09T08:42:53Z</time>
      </trkpt>
      <trkpt lat="44.55629" lon="1.00803">
        <ele>180.87</ele>
        <time>2014-03-09T08:42:59Z</time>
      </trkpt>
      <trkpt lat="44.55648" lon="1.00806">
        <ele>181.35</ele>
        <time>2014-03-09T08:43:10Z</time>
      </trkpt>
      <trkpt lat="44.55654" lon="1.00808">
        <ele>181.83</ele>
        <time>2014-03-09T08:43:13Z</time>
      </trkpt>
      <trkpt lat="44.5565" lon="1.00821">
        <ele>182.31</ele>
        <time>2014-03-09T08:43:21Z</time>
      </trkpt>
      <trkpt lat="44.55648" lon="1.00823">
        <ele>182.31</ele>
        <time>2014-03-09T08:43:22Z</time>
      </trkpt>
      <trkpt lat="44.55625" lon="1.00847">
        <ele>188.56</ele>
        <time>2014-03-09T08:43:36Z</time>
      </trkpt>
      <trkpt lat="44.55607" lon="1.00885">
        <ele>196.25</ele>
        <time>2014-03-09T08:43:50Z</time>
      </trkpt>
      <trkpt lat="44.55613" lon="1.0092">
        <ele>198.65</ele>
        <time>2014-03-09T08:44:03Z</time>
      </trkpt>
      <trkpt lat="44.55628" lon="1.00948">
        <ele>202.01</ele>
        <time>2014-03-09T08:44:15Z</time>
      </trkpt>
      <trkpt lat="44.55651" lon="1.00993">
        <ele>202.01</ele>
        <time>2014-03-09T08:44:26Z</time>
      </trkpt>
      <trkpt lat="44.55653" lon="1.00997">
        <ele>202.01</ele>
        <time>2014-03-09T08:44:27Z</time>
      </trkpt>
      <trkpt lat="44.55685" lon="1.01046">
        <ele>200.09</ele>
        <time>2014-03-09T08:44:37Z</time>
      </trkpt>
      <trkpt lat="44.55685" lon="1.01064">
        <ele>196.73</ele>
        <time>2014-03-09T08:44:42Z</time>
      </trkpt>
      <trkpt lat="44.55659" lon="1.01112">
        <ele>190</ele>
        <time>2014-03-09T08:44:53Z</time>
      </trkpt>
      <trkpt lat="44.55647" lon="1.01134">
        <ele>187.59</ele>
        <time>2014-03-09T08:44:57Z</time>
      </trkpt>
      <trkpt lat="44.55636" lon="1.01158">
        <ele>186.15</ele>
        <time>2014-03-09T08:45:01Z</time>
      </trkpt>
      <trkpt lat="44.55635" lon="1.01188">
        <ele>184.23</ele>
        <time>2014-03-09T08:45:05Z</time>
      </trkpt>
      <trkpt lat="44.55645" lon="1.01257">
        <ele>184.71</ele>
        <time>2014-03-09T08:45:17Z</time>
      </trkpt>
      <trkpt lat="44.55635" lon="1.01312">
        <ele>187.59</ele>
        <time>2014-03-09T08:45:29Z</time>
      </trkpt>
      <trkpt lat="44.55628" lon="1.01391">
        <ele>188.56</ele>
        <time>2014-03-09T08:45:44Z</time>
      </trkpt>
      <trkpt lat="44.55627" lon="1.01397">
        <ele>188.56</ele>
        <time>2014-03-09T08:45:45Z</time>
      </trkpt>
      <trkpt lat="44.5562" lon="1.01417">
        <ele>188.08</ele>
        <time>2014-03-09T08:45:49Z</time>
      </trkpt>
      <trkpt lat="44.55596" lon="1.01452">
        <ele>189.04</ele>
        <time>2014-03-09T08:45:58Z</time>
      </trkpt>
      <trkpt lat="44.55561" lon="1.01511">
        <ele>189.04</ele>
        <time>2014-03-09T08:46:13Z</time>
      </trkpt>
      <trkpt lat="44.55538" lon="1.0157">
        <ele>189.52</ele>
        <time>2014-03-09T08:46:25Z</time>
      </trkpt>
      <trkpt lat="44.55537" lon="1.01625">
        <ele>190</ele>
        <time>2014-03-09T08:46:36Z</time>
      </trkpt>
      <trkpt lat="44.5554" lon="1.01663">
        <ele>188.08</ele>
        <time>2014-03-09T08:46:44Z</time>
      </trkpt>
      <trkpt lat="44.55526" lon="1.01698">
        <ele>186.15</ele>
        <time>2014-03-09T08:46:51Z</time>
      </trkpt>
      <trkpt lat="44.55483" lon="1.01736">
        <ele>189.04</ele>
        <time>2014-03-09T08:47:05Z</time>
      </trkpt>
      <trkpt lat="44.55455" lon="1.01746">
        <ele>198.17</ele>
        <time>2014-03-09T08:47:16Z</time>
      </trkpt>
      <trkpt lat="44.55444" lon="1.01754">
        <ele>201.53</ele>
        <time>2014-03-09T08:47:22Z</time>
      </trkpt>
      <trkpt lat="44.55426" lon="1.0178">
        <ele>205.86</ele>
        <time>2014-03-09T08:47:33Z</time>
      </trkpt>
      <trkpt lat="44.55395" lon="1.01799">
        <ele>210.19</ele>
        <time>2014-03-09T08:47:46Z</time>
      </trkpt>
      <trkpt lat="44.55355" lon="1.01796">
        <ele>211.63</ele>
        <time>2014-03-09T08:48:00Z</time>
      </trkpt>
      <trkpt lat="44.55338" lon="1.01818">
        <ele>212.11</ele>
        <time>2014-03-09T08:48:10Z</time>
      </trkpt>
      <trkpt lat="44.55322" lon="1.01848">
        <ele>211.63</ele>
        <time>2014-03-09T08:48:24Z</time>
      </trkpt>
      <trkpt lat="44.55317" lon="1.0185">
        <ele>209.22</ele>
        <time>2014-03-09T08:48:37Z</time>
      </trkpt>
      <trkpt lat="44.55317" lon="1.0185">
        <ele>210.67</ele>
        <time>2014-03-09T08:48:53Z</time>
      </trkpt>
      <trkpt lat="44.55316" lon="1.0185">
        <ele>211.63</ele>
        <time>2014-03-09T08:49:15Z</time>
      </trkpt>
      <trkpt lat="44.55316" lon="1.0185">
        <ele>211.63</ele>
        <time>2014-03-09T08:49:19Z</time>
      </trkpt>
      <trkpt lat="44.55294" lon="1.01836">
        <ele>210.67</ele>
        <time>2014-03-09T08:49:29Z</time>
      </trkpt>
      <trkpt lat="44.55226" lon="1.01769">
        <ele>210.67</ele>
        <time>2014-03-09T08:49:46Z</time>
      </trkpt>
      <trkpt lat="44.55219" lon="1.01763">
        <ele>211.15</ele>
        <time>2014-03-09T08:49:48Z</time>
      </trkpt>
      <trkpt lat="44.55213" lon="1.01756">
        <ele>210.67</ele>
        <time>2014-03-09T08:49:50Z</time>
      </trkpt>
      <trkpt lat="44.55187" lon="1.01716">
        <ele>206.34</ele>
        <time>2014-03-09T08:49:57Z</time>
      </trkpt>
      <trkpt lat="44.55179" lon="1.01704">
        <ele>205.38</ele>
        <time>2014-03-09T08:49:59Z</time>
      </trkpt>
      <trkpt lat="44.55163" lon="1.01686">
        <ele>203.46</ele>
        <time>2014-03-09T08:50:02Z</time>
      </trkpt>
      <trkpt lat="44.55086" lon="1.01624">
        <ele>199.61</ele>
        <time>2014-03-09T08:50:14Z</time>
      </trkpt>
      <trkpt lat="44.55072" lon="1.01618">
        <ele>199.13</ele>
        <time>2014-03-09T08:50:16Z</time>
      </trkpt>
      <trkpt lat="44.55009" lon="1.0158">
        <ele>198.65</ele>
        <time>2014-03-09T08:50:27Z</time>
      </trkpt>
      <trkpt lat="44.54922" lon="1.01563">
        <ele>193.36</ele>
        <time>2014-03-09T08:50:40Z</time>
      </trkpt>
      <trkpt lat="44.54885" lon="1.01559">
        <ele>192.4</ele>
        <time>2014-03-09T08:50:45Z</time>
      </trkpt>
      <trkpt lat="44.54866" lon="1.01544">
        <ele>190.96</ele>
        <time>2014-03-09T08:50:49Z</time>
      </trkpt>
      <trkpt lat="44.54857" lon="1.01523">
        <ele>190</ele>
        <time>2014-03-09T08:50:52Z</time>
      </trkpt>
      <trkpt lat="44.5484" lon="1.01494">
        <ele>189.52</ele>
        <time>2014-03-09T08:50:57Z</time>
      </trkpt>
      <trkpt lat="44.54822" lon="1.01476">
        <ele>190</ele>
        <time>2014-03-09T08:51:01Z</time>
      </trkpt>
      <trkpt lat="44.54779" lon="1.01459">
        <ele>191.44</ele>
        <time>2014-03-09T08:51:09Z</time>
      </trkpt>
      <trkpt lat="44.54718" lon="1.01472">
        <ele>197.69</ele>
        <time>2014-03-09T08:51:21Z</time>
      </trkpt>
      <trkpt lat="44.54708" lon="1.01475">
        <ele>199.61</ele>
        <time>2014-03-09T08:51:23Z</time>
      </trkpt>
      <trkpt lat="44.54656" lon="1.01471">
        <ele>203.94</ele>
        <time>2014-03-09T08:51:34Z</time>
      </trkpt>
      <trkpt lat="44.54588" lon="1.01479">
        <ele>204.9</ele>
        <time>2014-03-09T08:51:46Z</time>
      </trkpt>
      <trkpt lat="44.54581" lon="1.0148">
        <ele>204.9</ele>
        <time>2014-03-09T08:51:48Z</time>
      </trkpt>
      <trkpt lat="44.54576" lon="1.01472">
        <ele>203.46</ele>
        <time>2014-03-09T08:51:52Z</time>
      </trkpt>
      <trkpt lat="44.54556" lon="1.01443">
        <ele>199.61</ele>
        <time>2014-03-09T08:52:03Z</time>
      </trkpt>
      <trkpt lat="44.54521" lon="1.01404">
        <ele>197.69</ele>
        <time>2014-03-09T08:52:16Z</time>
      </trkpt>
      <trkpt lat="44.5448" lon="1.01377">
        <ele>201.05</ele>
        <time>2014-03-09T08:52:28Z</time>
      </trkpt>
      <trkpt lat="44.54447" lon="1.01362">
        <ele>205.38</ele>
        <time>2014-03-09T08:52:38Z</time>
      </trkpt>
      <trkpt lat="44.54422" lon="1.0136">
        <ele>205.86</ele>
        <time>2014-03-09T08:52:44Z</time>
      </trkpt>
      <trkpt lat="44.5439" lon="1.01375">
        <ele>207.3</ele>
        <time>2014-03-09T08:52:53Z</time>
      </trkpt>
      <trkpt lat="44.54388" lon="1.01375">
        <ele>207.3</ele>
        <time>2014-03-09T08:52:54Z</time>
      </trkpt>
      <trkpt lat="44.54359" lon="1.01377">
        <ele>212.59</ele>
        <time>2014-03-09T08:53:05Z</time>
      </trkpt>
      <trkpt lat="44.54338" lon="1.01384">
        <ele>215.95</ele>
        <time>2014-03-09T08:53:13Z</time>
      </trkpt>
      <trkpt lat="44.54332" lon="1.01389">
        <ele>217.4</ele>
        <time>2014-03-09T08:53:16Z</time>
      </trkpt>
      <trkpt lat="44.543" lon="1.01406">
        <ele>221.72</ele>
        <time>2014-03-09T08:53:29Z</time>
      </trkpt>
      <trkpt lat="44.54278" lon="1.01433">
        <ele>223.64</ele>
        <time>2014-03-09T08:53:38Z</time>
      </trkpt>
      <trkpt lat="44.54274" lon="1.01445">
        <ele>223.64</ele>
        <time>2014-03-09T08:53:40Z</time>
      </trkpt>
      <trkpt lat="44.54267" lon="1.01458">
        <ele>224.12</ele>
        <time>2014-03-09T08:53:42Z</time>
      </trkpt>
      <trkpt lat="44.54234" lon="1.01489">
        <ele>222.68</ele>
        <time>2014-03-09T08:53:49Z</time>
      </trkpt>
      <trkpt lat="44.54209" lon="1.01472">
        <ele>222.68</ele>
        <time>2014-03-09T08:53:57Z</time>
      </trkpt>
      <trkpt lat="44.54197" lon="1.01474">
        <ele>222.2</ele>
        <time>2014-03-09T08:54:00Z</time>
      </trkpt>
      <trkpt lat="44.54173" lon="1.0148">
        <ele>219.8</ele>
        <time>2014-03-09T08:54:05Z</time>
      </trkpt>
      <trkpt lat="44.54146" lon="1.01485">
        <ele>217.4</ele>
        <time>2014-03-09T08:54:12Z</time>
      </trkpt>
      <trkpt lat="44.54119" lon="1.01493">
        <ele>216.43</ele>
        <time>2014-03-09T08:54:18Z</time>
      </trkpt>
      <trkpt lat="44.54086" lon="1.01475">
        <ele>213.07</ele>
        <time>2014-03-09T08:54:25Z</time>
      </trkpt>
      <trkpt lat="44.54068" lon="1.0143">
        <ele>206.82</ele>
        <time>2014-03-09T08:54:31Z</time>
      </trkpt>
      <trkpt lat="44.54047" lon="1.01427">
        <ele>201.05</ele>
        <time>2014-03-09T08:54:36Z</time>
      </trkpt>
      <trkpt lat="44.54029" lon="1.01444">
        <ele>197.21</ele>
        <time>2014-03-09T08:54:40Z</time>
      </trkpt>
      <trkpt lat="44.54005" lon="1.01447">
        <ele>190.96</ele>
        <time>2014-03-09T08:54:45Z</time>
      </trkpt>
      <trkpt lat="44.53947" lon="1.01415">
        <ele>179.42</ele>
        <time>2014-03-09T08:54:55Z</time>
      </trkpt>
      <trkpt lat="44.53924" lon="1.01404">
        <ele>175.1</ele>
        <time>2014-03-09T08:55:01Z</time>
      </trkpt>
      <trkpt lat="44.53922" lon="1.01404">
        <ele>174.62</ele>
        <time>2014-03-09T08:55:02Z</time>
      </trkpt>
      <trkpt lat="44.53923" lon="1.01416">
        <ele>174.14</ele>
        <time>2014-03-09T08:55:08Z</time>
      </trkpt>
      <trkpt lat="44.53943" lon="1.01427">
        <ele>174.62</ele>
        <time>2014-03-09T08:55:21Z</time>
      </trkpt>
      <trkpt lat="44.53948" lon="1.01429">
        <ele>174.62</ele>
        <time>2014-03-09T08:55:27Z</time>
      </trkpt>
      <trkpt lat="44.53953" lon="1.01441">
        <ele>174.62</ele>
        <time>2014-03-09T08:55:33Z</time>
      </trkpt>
      <trkpt lat="44.53965" lon="1.01476">
        <ele>175.1</ele>
        <time>2014-03-09T08:55:45Z</time>
      </trkpt>
      <trkpt lat="44.53972" lon="1.01515">
        <ele>175.58</ele>
        <time>2014-03-09T08:55:56Z</time>
      </trkpt>
      <trkpt lat="44.53974" lon="1.01525">
        <ele>176.06</ele>
        <time>2014-03-09T08:55:59Z</time>
      </trkpt>
      <trkpt lat="44.53985" lon="1.01539">
        <ele>178.94</ele>
        <time>2014-03-09T08:56:06Z</time>
      </trkpt>
      <trkpt lat="44.54004" lon="1.01561">
        <ele>182.79</ele>
        <time>2014-03-09T08:56:16Z</time>
      </trkpt>
      <trkpt lat="44.54033" lon="1.01594">
        <ele>187.11</ele>
        <time>2014-03-09T08:56:27Z</time>
      </trkpt>
      <trkpt lat="44.54059" lon="1.01636">
        <ele>190</ele>
        <time>2014-03-09T08:56:37Z</time>
      </trkpt>
      <trkpt lat="44.54078" lon="1.01649">
        <ele>190.48</ele>
        <time>2014-03-09T08:56:42Z</time>
      </trkpt>
      <trkpt lat="44.54126" lon="1.01652">
        <ele>191.92</ele>
        <time>2014-03-09T08:56:53Z</time>
      </trkpt>
      <trkpt lat="44.54152" lon="1.01661">
        <ele>192.4</ele>
        <time>2014-03-09T08:56:59Z</time>
      </trkpt>
      <trkpt lat="44.54167" lon="1.01678">
        <ele>192.88</ele>
        <time>2014-03-09T08:57:03Z</time>
      </trkpt>
      <trkpt lat="44.5419" lon="1.01701">
        <ele>192.4</ele>
        <time>2014-03-09T08:57:08Z</time>
      </trkpt>
      <trkpt lat="44.54213" lon="1.01715">
        <ele>191.44</ele>
        <time>2014-03-09T08:57:13Z</time>
      </trkpt>
      <trkpt lat="44.54242" lon="1.01725">
        <ele>190</ele>
        <time>2014-03-09T08:57:18Z</time>
      </trkpt>
      <trkpt lat="44.54276" lon="1.01714">
        <ele>184.23</ele>
        <time>2014-03-09T08:57:26Z</time>
      </trkpt>
      <trkpt lat="44.54285" lon="1.01725">
        <ele>180.38</ele>
        <time>2014-03-09T08:57:31Z</time>
      </trkpt>
      <trkpt lat="44.54288" lon="1.0174">
        <ele>176.54</ele>
        <time>2014-03-09T08:57:34Z</time>
      </trkpt>
      <trkpt lat="44.54298" lon="1.01739">
        <ele>172.21</ele>
        <time>2014-03-09T08:57:39Z</time>
      </trkpt>
      <trkpt lat="44.54309" lon="1.01748">
        <ele>169.81</ele>
        <time>2014-03-09T08:57:43Z</time>
      </trkpt>
      <trkpt lat="44.54331" lon="1.01764">
        <ele>168.85</ele>
        <time>2014-03-09T08:57:47Z</time>
      </trkpt>
      <trkpt lat="44.54348" lon="1.01777">
        <ele>166.93</ele>
        <time>2014-03-09T08:57:51Z</time>
      </trkpt>
      <trkpt lat="44.54357" lon="1.01786">
        <ele>163.56</ele>
        <time>2014-03-09T08:58:05Z</time>
      </trkpt>
      <trkpt lat="44.54359" lon="1.01788">
        <ele>163.56</ele>
        <time>2014-03-09T08:58:09Z</time>
      </trkpt>
      <trkpt lat="44.54356" lon="1.01794">
        <ele>163.56</ele>
        <time>2014-03-09T08:58:21Z</time>
      </trkpt>
      <trkpt lat="44.54355" lon="1.01794">
        <ele>163.56</ele>
        <time>2014-03-09T08:58:23Z</time>
      </trkpt>
      <trkpt lat="44.54325" lon="1.01809">
        <ele>161.64</ele>
        <time>2014-03-09T08:58:34Z</time>
      </trkpt>
      <trkpt lat="44.54278" lon="1.01838">
        <ele>155.39</ele>
        <time>2014-03-09T08:58:45Z</time>
      </trkpt>
      <trkpt lat="44.54222" lon="1.01829">
        <ele>149.62</ele>
        <time>2014-03-09T08:58:53Z</time>
      </trkpt>
      <trkpt lat="44.54202" lon="1.01819">
        <ele>148.66</ele>
        <time>2014-03-09T08:58:56Z</time>
      </trkpt>
      <trkpt lat="44.54187" lon="1.01817">
        <ele>148.18</ele>
        <time>2014-03-09T08:58:58Z</time>
      </trkpt>
      <trkpt lat="44.54132" lon="1.01798">
        <ele>143.37</ele>
        <time>2014-03-09T08:59:06Z</time>
      </trkpt>
      <trkpt lat="44.54113" lon="1.01823">
        <ele>138.57</ele>
        <time>2014-03-09T08:59:13Z</time>
      </trkpt>
      <trkpt lat="44.54106" lon="1.01824">
        <ele>138.09</ele>
        <time>2014-03-09T08:59:15Z</time>
      </trkpt>
      <trkpt lat="44.54084" lon="1.01827">
        <ele>138.09</ele>
        <time>2014-03-09T08:59:22Z</time>
      </trkpt>
      <trkpt lat="44.54077" lon="1.01833">
        <ele>140.49</ele>
        <time>2014-03-09T08:59:27Z</time>
      </trkpt>
      <trkpt lat="44.54063" lon="1.0184">
        <ele>149.14</ele>
        <time>2014-03-09T08:59:39Z</time>
      </trkpt>
      <trkpt lat="44.5406" lon="1.01842">
        <ele>151.54</ele>
        <time>2014-03-09T08:59:58Z</time>
      </trkpt>
      <trkpt lat="44.54053" lon="1.01847">
        <ele>156.35</ele>
        <time>2014-03-09T09:00:11Z</time>
      </trkpt>
      <trkpt lat="44.54051" lon="1.01848">
        <ele>160.68</ele>
        <time>2014-03-09T09:00:24Z</time>
      </trkpt>
      <trkpt lat="44.54045" lon="1.0185">
        <ele>161.64</ele>
        <time>2014-03-09T09:00:29Z</time>
      </trkpt>
      <trkpt lat="44.54039" lon="1.01853">
        <ele>162.6</ele>
        <time>2014-03-09T09:00:33Z</time>
      </trkpt>
      <trkpt lat="44.54029" lon="1.01855">
        <ele>165.96</ele>
        <time>2014-03-09T09:00:40Z</time>
      </trkpt>
      <trkpt lat="44.54011" lon="1.0185">
        <ele>173.17</ele>
        <time>2014-03-09T09:00:53Z</time>
      </trkpt>
      <trkpt lat="44.53994" lon="1.01844">
        <ele>177.98</ele>
        <time>2014-03-09T09:01:05Z</time>
      </trkpt>
      <trkpt lat="44.53979" lon="1.01837">
        <ele>181.83</ele>
        <time>2014-03-09T09:01:17Z</time>
      </trkpt>
      <trkpt lat="44.53974" lon="1.01833">
        <ele>181.35</ele>
        <time>2014-03-09T09:01:21Z</time>
      </trkpt>
      <trkpt lat="44.5395" lon="1.01803">
        <ele>181.83</ele>
        <time>2014-03-09T09:01:36Z</time>
      </trkpt>
      <trkpt lat="44.53944" lon="1.018">
        <ele>182.31</ele>
        <time>2014-03-09T09:01:39Z</time>
      </trkpt>
      <trkpt lat="44.53938" lon="1.01798">
        <ele>179.42</ele>
        <time>2014-03-09T09:01:54Z</time>
      </trkpt>
      <trkpt lat="44.53935" lon="1.01797">
        <ele>178.94</ele>
        <time>2014-03-09T09:02:10Z</time>
      </trkpt>
      <trkpt lat="44.53934" lon="1.01798">
        <ele>176.54</ele>
        <time>2014-03-09T09:02:41Z</time>
      </trkpt>
      <trkpt lat="44.53916" lon="1.01791">
        <ele>174.62</ele>
        <time>2014-03-09T09:02:56Z</time>
      </trkpt>
      <trkpt lat="44.53881" lon="1.01772">
        <ele>174.62</ele>
        <time>2014-03-09T09:03:07Z</time>
      </trkpt>
      <trkpt lat="44.53846" lon="1.01755">
        <ele>181.35</ele>
        <time>2014-03-09T09:03:20Z</time>
      </trkpt>
      <trkpt lat="44.53827" lon="1.01733">
        <ele>185.19</ele>
        <time>2014-03-09T09:03:31Z</time>
      </trkpt>
      <trkpt lat="44.53789" lon="1.01707">
        <ele>177.5</ele>
        <time>2014-03-09T09:03:42Z</time>
      </trkpt>
      <trkpt lat="44.53785" lon="1.01707">
        <ele>176.54</ele>
        <time>2014-03-09T09:03:43Z</time>
      </trkpt>
      <trkpt lat="44.53758" lon="1.01714">
        <ele>172.21</ele>
        <time>2014-03-09T09:03:48Z</time>
      </trkpt>
      <trkpt lat="44.53736" lon="1.01727">
        <ele>170.29</ele>
        <time>2014-03-09T09:03:52Z</time>
      </trkpt>
      <trkpt lat="44.53721" lon="1.01728">
        <ele>169.81</ele>
        <time>2014-03-09T09:03:55Z</time>
      </trkpt>
      <trkpt lat="44.53707" lon="1.01721">
        <ele>170.29</ele>
        <time>2014-03-09T09:03:58Z</time>
      </trkpt>
      <trkpt lat="44.53669" lon="1.01705">
        <ele>171.25</ele>
        <time>2014-03-09T09:04:06Z</time>
      </trkpt>
      <trkpt lat="44.5366" lon="1.01701">
        <ele>170.77</ele>
        <time>2014-03-09T09:04:08Z</time>
      </trkpt>
      <trkpt lat="44.53652" lon="1.01697">
        <ele>170.29</ele>
        <time>2014-03-09T09:04:10Z</time>
      </trkpt>
      <trkpt lat="44.53627" lon="1.01679">
        <ele>168.37</ele>
        <time>2014-03-09T09:04:16Z</time>
      </trkpt>
      <trkpt lat="44.5361" lon="1.01681">
        <ele>165.96</ele>
        <time>2014-03-09T09:04:20Z</time>
      </trkpt>
      <trkpt lat="44.53584" lon="1.01692">
        <ele>165</ele>
        <time>2014-03-09T09:04:29Z</time>
      </trkpt>
      <trkpt lat="44.53587" lon="1.01688">
        <ele>163.56</ele>
        <time>2014-03-09T09:04:35Z</time>
      </trkpt>
      <trkpt lat="44.53594" lon="1.01659">
        <ele>160.68</ele>
        <time>2014-03-09T09:04:44Z</time>
      </trkpt>
      <trkpt lat="44.53635" lon="1.01578">
        <ele>154.43</ele>
        <time>2014-03-09T09:04:53Z</time>
      </trkpt>
      <trkpt lat="44.53647" lon="1.01555">
        <ele>152.51</ele>
        <time>2014-03-09T09:04:55Z</time>
      </trkpt>
      <trkpt lat="44.53715" lon="1.01478">
        <ele>137.61</ele>
        <time>2014-03-09T09:05:05Z</time>
      </trkpt>
      <trkpt lat="44.53733" lon="1.01459">
        <ele>131.36</ele>
        <time>2014-03-09T09:05:13Z</time>
      </trkpt>
      <trkpt lat="44.53721" lon="1.01418">
        <ele>127.99</ele>
        <time>2014-03-09T09:05:26Z</time>
      </trkpt>
      <trkpt lat="44.53705" lon="1.01344">
        <ele>125.11</ele>
        <time>2014-03-09T09:05:41Z</time>
      </trkpt>
      <trkpt lat="44.53714" lon="1.01316">
        <ele>124.15</ele>
        <time>2014-03-09T09:05:47Z</time>
      </trkpt>
      <trkpt lat="44.53708" lon="1.01289">
        <ele>123.19</ele>
        <time>2014-03-09T09:05:54Z</time>
      </trkpt>
      <trkpt lat="44.5365" lon="1.01224">
        <ele>123.19</ele>
        <time>2014-03-09T09:06:11Z</time>
      </trkpt>
      <trkpt lat="44.53624" lon="1.01187">
        <ele>123.67</ele>
        <time>2014-03-09T09:06:19Z</time>
      </trkpt>
      <trkpt lat="44.5361" lon="1.01143">
        <ele>124.63</ele>
        <time>2014-03-09T09:06:26Z</time>
      </trkpt>
      <trkpt lat="44.53598" lon="1.0112">
        <ele>124.63</ele>
        <time>2014-03-09T09:06:30Z</time>
      </trkpt>
      <trkpt lat="44.53522" lon="1.01056">
        <ele>129.43</ele>
        <time>2014-03-09T09:06:47Z</time>
      </trkpt>
      <trkpt lat="44.53486" lon="1.01015">
        <ele>130.88</ele>
        <time>2014-03-09T09:06:57Z</time>
      </trkpt>
      <trkpt lat="44.53471" lon="1.01">
        <ele>129.92</ele>
        <time>2014-03-09T09:07:02Z</time>
      </trkpt>
      <trkpt lat="44.53442" lon="1.00952">
        <ele>128.47</ele>
        <time>2014-03-09T09:07:15Z</time>
      </trkpt>
      <trkpt lat="44.53399" lon="1.00873">
        <ele>125.11</ele>
        <time>2014-03-09T09:07:26Z</time>
      </trkpt>
      <trkpt lat="44.53347" lon="1.00773">
        <ele>119.82</ele>
        <time>2014-03-09T09:07:39Z</time>
      </trkpt>
      <trkpt lat="44.53337" lon="1.00757">
        <ele>118.86</ele>
        <time>2014-03-09T09:07:41Z</time>
      </trkpt>
      <trkpt lat="44.53301" lon="1.00738">
        <ele>116.94</ele>
        <time>2014-03-09T09:07:47Z</time>
      </trkpt>
      <trkpt lat="44.53243" lon="1.00742">
        <ele>115.98</ele>
        <time>2014-03-09T09:07:59Z</time>
      </trkpt>
      <trkpt lat="44.53183" lon="1.0073">
        <ele>116.46</ele>
        <time>2014-03-09T09:08:12Z</time>
      </trkpt>
      <trkpt lat="44.53144" lon="1.00697">
        <ele>114.53</ele>
        <time>2014-03-09T09:08:19Z</time>
      </trkpt>
      <trkpt lat="44.53119" lon="1.00686">
        <ele>113.09</ele>
        <time>2014-03-09T09:08:23Z</time>
      </trkpt>
      <trkpt lat="44.53074" lon="1.00675">
        <ele>110.69</ele>
        <time>2014-03-09T09:08:30Z</time>
      </trkpt>
      <trkpt lat="44.53012" lon="1.00608">
        <ele>110.69</ele>
        <time>2014-03-09T09:08:44Z</time>
      </trkpt>
      <trkpt lat="44.52969" lon="1.0053">
        <ele>106.84</ele>
        <time>2014-03-09T09:08:55Z</time>
      </trkpt>
      <trkpt lat="44.52918" lon="1.00475">
        <ele>103.96</ele>
        <time>2014-03-09T09:09:03Z</time>
      </trkpt>
      <trkpt lat="44.52902" lon="1.00448">
        <ele>103.48</ele>
        <time>2014-03-09T09:09:06Z</time>
      </trkpt>
      <trkpt lat="44.52862" lon="1.00312">
        <ele>102.04</ele>
        <time>2014-03-09T09:09:21Z</time>
      </trkpt>
      <trkpt lat="44.5286" lon="1.00304">
        <ele>102.52</ele>
        <time>2014-03-09T09:09:22Z</time>
      </trkpt>
      <trkpt lat="44.52853" lon="1.00206">
        <ele>102.52</ele>
        <time>2014-03-09T09:09:37Z</time>
      </trkpt>
      <trkpt lat="44.52828" lon="1.0016">
        <ele>103.96</ele>
        <time>2014-03-09T09:09:48Z</time>
      </trkpt>
      <trkpt lat="44.52783" lon="1.00132">
        <ele>104.92</ele>
        <time>2014-03-09T09:10:00Z</time>
      </trkpt>
      <trkpt lat="44.52765" lon="1.00108">
        <ele>104.44</ele>
        <time>2014-03-09T09:10:05Z</time>
      </trkpt>
      <trkpt lat="44.52743" lon="1.00066">
        <ele>102.04</ele>
        <time>2014-03-09T09:10:12Z</time>
      </trkpt>
      <trkpt lat="44.52737" lon="1.00051">
        <ele>101.08</ele>
        <time>2014-03-09T09:10:14Z</time>
      </trkpt>
      <trkpt lat="44.52732" lon="1.00021">
        <ele>100.11</ele>
        <time>2014-03-09T09:10:18Z</time>
      </trkpt>
      <trkpt lat="44.5273" lon="0.99994">
        <ele>99.15</ele>
        <time>2014-03-09T09:10:23Z</time>
      </trkpt>
      <trkpt lat="44.52711" lon="0.99948">
        <ele>98.19</ele>
        <time>2014-03-09T09:10:36Z</time>
      </trkpt>
      <trkpt lat="44.52703" lon="0.99932">
        <ele>98.67</ele>
        <time>2014-03-09T09:10:40Z</time>
      </trkpt>
      <trkpt lat="44.52703" lon="0.99939">
        <ele>98.67</ele>
        <time>2014-03-09T09:10:45Z</time>
      </trkpt>
      <trkpt lat="44.52727" lon="0.99981">
        <ele>100.11</ele>
        <time>2014-03-09T09:10:58Z</time>
      </trkpt>
      <trkpt lat="44.52737" lon="0.99979">
        <ele>101.56</ele>
        <time>2014-03-09T09:11:03Z</time>
      </trkpt>
      <trkpt lat="44.52749" lon="0.99966">
        <ele>104.92</ele>
        <time>2014-03-09T09:11:12Z</time>
      </trkpt>
      <trkpt lat="44.52767" lon="0.99948">
        <ele>108.77</ele>
        <time>2014-03-09T09:11:25Z</time>
      </trkpt>
      <trkpt lat="44.52772" lon="0.99943">
        <ele>111.65</ele>
        <time>2014-03-09T09:11:30Z</time>
      </trkpt>
      <trkpt lat="44.52787" lon="0.99929">
        <ele>115.5</ele>
        <time>2014-03-09T09:11:44Z</time>
      </trkpt>
      <trkpt lat="44.52799" lon="0.99917">
        <ele>118.86</ele>
        <time>2014-03-09T09:11:55Z</time>
      </trkpt>
      <trkpt lat="44.52803" lon="0.99912">
        <ele>123.19</ele>
        <time>2014-03-09T09:12:06Z</time>
      </trkpt>
      <trkpt lat="44.52808" lon="0.9991">
        <ele>125.59</ele>
        <time>2014-03-09T09:12:20Z</time>
      </trkpt>
      <trkpt lat="44.52819" lon="0.99912">
        <ele>128.95</ele>
        <time>2014-03-09T09:12:33Z</time>
      </trkpt>
      <trkpt lat="44.52829" lon="0.99912">
        <ele>131.36</ele>
        <time>2014-03-09T09:12:46Z</time>
      </trkpt>
      <trkpt lat="44.52847" lon="0.99912">
        <ele>133.76</ele>
        <time>2014-03-09T09:12:59Z</time>
      </trkpt>
      <trkpt lat="44.52852" lon="0.99911">
        <ele>134.24</ele>
        <time>2014-03-09T09:13:02Z</time>
      </trkpt>
      <trkpt lat="44.52856" lon="0.99915">
        <ele>134.72</ele>
        <time>2014-03-09T09:13:15Z</time>
      </trkpt>
      <trkpt lat="44.52854" lon="0.99914">
        <ele>135.68</ele>
        <time>2014-03-09T09:13:42Z</time>
      </trkpt>
      <trkpt lat="44.52865" lon="0.99914">
        <ele>136.64</ele>
        <time>2014-03-09T09:14:00Z</time>
      </trkpt>
      <trkpt lat="44.52886" lon="0.99909">
        <ele>139.53</ele>
        <time>2014-03-09T09:14:13Z</time>
      </trkpt>
      <trkpt lat="44.52887" lon="0.99909">
        <ele>140.01</ele>
        <time>2014-03-09T09:14:14Z</time>
      </trkpt>
      <trkpt lat="44.52892" lon="0.9991">
        <ele>140.49</ele>
        <time>2014-03-09T09:14:18Z</time>
      </trkpt>
      <trkpt lat="44.52898" lon="0.9991">
        <ele>142.41</ele>
        <time>2014-03-09T09:14:24Z</time>
      </trkpt>
      <trkpt lat="44.52902" lon="0.9991">
        <ele>146.74</ele>
        <time>2014-03-09T09:14:36Z</time>
      </trkpt>
      <trkpt lat="44.52912" lon="0.99907">
        <ele>150.1</ele>
        <time>2014-03-09T09:14:50Z</time>
      </trkpt>
      <trkpt lat="44.52922" lon="0.99902">
        <ele>152.51</ele>
        <time>2014-03-09T09:15:02Z</time>
      </trkpt>
      <trkpt lat="44.52937" lon="0.99895">
        <ele>156.35</ele>
        <time>2014-03-09T09:15:19Z</time>
      </trkpt>
      <trkpt lat="44.52948" lon="0.99889">
        <ele>159.24</ele>
        <time>2014-03-09T09:15:33Z</time>
      </trkpt>
      <trkpt lat="44.52961" lon="0.99881">
        <ele>161.64</ele>
        <time>2014-03-09T09:15:47Z</time>
      </trkpt>
      <trkpt lat="44.52974" lon="0.99875">
        <ele>164.04</ele>
        <time>2014-03-09T09:16:01Z</time>
      </trkpt>
      <trkpt lat="44.52981" lon="0.99872">
        <ele>165</ele>
        <time>2014-03-09T09:16:14Z</time>
      </trkpt>
      <trkpt lat="44.52983" lon="0.99871">
        <ele>164.52</ele>
        <time>2014-03-09T09:16:34Z</time>
      </trkpt>
      <trkpt lat="44.52983" lon="0.99866">
        <ele>162.12</ele>
        <time>2014-03-09T09:17:01Z</time>
      </trkpt>
      <trkpt lat="44.52982" lon="0.99868">
        <ele>163.08</ele>
        <time>2014-03-09T09:17:22Z</time>
      </trkpt>
      <trkpt lat="44.52982" lon="0.99874">
        <ele>161.64</ele>
        <time>2014-03-09T09:17:56Z</time>
      </trkpt>
      <trkpt lat="44.52981" lon="0.99874">
        <ele>164.04</ele>
        <time>2014-03-09T09:18:18Z</time>
      </trkpt>
      <trkpt lat="44.5298" lon="0.99875">
        <ele>163.08</ele>
        <time>2014-03-09T09:18:37Z</time>
      </trkpt>
      <trkpt lat="44.52982" lon="0.99876">
        <ele>164.04</ele>
        <time>2014-03-09T09:18:57Z</time>
      </trkpt>
      <trkpt lat="44.52981" lon="0.99874">
        <ele>162.6</ele>
        <time>2014-03-09T09:19:17Z</time>
      </trkpt>
      <trkpt lat="44.52983" lon="0.99872">
        <ele>159.72</ele>
        <time>2014-03-09T09:19:40Z</time>
      </trkpt>
      <trkpt lat="44.52984" lon="0.99871">
        <ele>160.2</ele>
        <time>2014-03-09T09:19:49Z</time>
      </trkpt>
      <trkpt lat="44.53005" lon="0.99857">
        <ele>163.56</ele>
        <time>2014-03-09T09:20:04Z</time>
      </trkpt>
      <trkpt lat="44.53022" lon="0.99841">
        <ele>166.93</ele>
        <time>2014-03-09T09:20:16Z</time>
      </trkpt>
      <trkpt lat="44.53042" lon="0.99815">
        <ele>168.85</ele>
        <time>2014-03-09T09:20:31Z</time>
      </trkpt>
      <trkpt lat="44.53055" lon="0.99794">
        <ele>170.77</ele>
        <time>2014-03-09T09:20:45Z</time>
      </trkpt>
      <trkpt lat="44.5307" lon="0.99764">
        <ele>173.66</ele>
        <time>2014-03-09T09:21:02Z</time>
      </trkpt>
      <trkpt lat="44.53074" lon="0.99755">
        <ele>173.66</ele>
        <time>2014-03-09T09:21:08Z</time>
      </trkpt>
      <trkpt lat="44.53076" lon="0.9974">
        <ele>174.14</ele>
        <time>2014-03-09T09:21:15Z</time>
      </trkpt>
      <trkpt lat="44.53073" lon="0.99704">
        <ele>175.58</ele>
        <time>2014-03-09T09:21:31Z</time>
      </trkpt>
      <trkpt lat="44.53072" lon="0.99701">
        <ele>175.58</ele>
        <time>2014-03-09T09:21:32Z</time>
      </trkpt>
      <trkpt lat="44.53079" lon="0.99691">
        <ele>177.02</ele>
        <time>2014-03-09T09:21:40Z</time>
      </trkpt>
      <trkpt lat="44.53087" lon="0.99695">
        <ele>176.54</ele>
        <time>2014-03-09T09:21:56Z</time>
      </trkpt>
      <trkpt lat="44.53088" lon="0.99695">
        <ele>175.58</ele>
        <time>2014-03-09T09:22:20Z</time>
      </trkpt>
      <trkpt lat="44.53104" lon="0.99696">
        <ele>176.54</ele>
        <time>2014-03-09T09:22:30Z</time>
      </trkpt>
      <trkpt lat="44.53116" lon="0.99695">
        <ele>177.5</ele>
        <time>2014-03-09T09:22:37Z</time>
      </trkpt>
      <trkpt lat="44.53123" lon="0.99691">
        <ele>177.98</ele>
        <time>2014-03-09T09:22:42Z</time>
      </trkpt>
      <trkpt lat="44.53154" lon="0.9966">
        <ele>180.38</ele>
        <time>2014-03-09T09:22:59Z</time>
      </trkpt>
      <trkpt lat="44.53176" lon="0.99632">
        <ele>182.31</ele>
        <time>2014-03-09T09:23:13Z</time>
      </trkpt>
      <trkpt lat="44.532" lon="0.99593">
        <ele>186.15</ele>
        <time>2014-03-09T09:23:30Z</time>
      </trkpt>
      <trkpt lat="44.53227" lon="0.9957">
        <ele>193.84</ele>
        <time>2014-03-09T09:23:46Z</time>
      </trkpt>
      <trkpt lat="44.53251" lon="0.99562">
        <ele>193.84</ele>
        <time>2014-03-09T09:23:58Z</time>
      </trkpt>
      <trkpt lat="44.53287" lon="0.99557">
        <ele>192.88</ele>
        <time>2014-03-09T09:24:12Z</time>
      </trkpt>
      <trkpt lat="44.53315" lon="0.99566">
        <ele>192.4</ele>
        <time>2014-03-09T09:24:24Z</time>
      </trkpt>
      <trkpt lat="44.53333" lon="0.99584">
        <ele>192.88</ele>
        <time>2014-03-09T09:24:33Z</time>
      </trkpt>
      <trkpt lat="44.53357" lon="0.99609">
        <ele>196.73</ele>
        <time>2014-03-09T09:24:46Z</time>
      </trkpt>
      <trkpt lat="44.53373" lon="0.99624">
        <ele>201.05</ele>
        <time>2014-03-09T09:24:57Z</time>
      </trkpt>
      <trkpt lat="44.53375" lon="0.99626">
        <ele>201.05</ele>
        <time>2014-03-09T09:24:58Z</time>
      </trkpt>
      <trkpt lat="44.53398" lon="0.99638">
        <ele>198.65</ele>
        <time>2014-03-09T09:25:09Z</time>
      </trkpt>
      <trkpt lat="44.53433" lon="0.99634">
        <ele>198.65</ele>
        <time>2014-03-09T09:25:22Z</time>
      </trkpt>
      <trkpt lat="44.53458" lon="0.99632">
        <ele>198.65</ele>
        <time>2014-03-09T09:25:30Z</time>
      </trkpt>
      <trkpt lat="44.53489" lon="0.9961">
        <ele>198.17</ele>
        <time>2014-03-09T09:25:37Z</time>
      </trkpt>
      <trkpt lat="44.53515" lon="0.99572">
        <ele>197.21</ele>
        <time>2014-03-09T09:25:47Z</time>
      </trkpt>
      <trkpt lat="44.53545" lon="0.99552">
        <ele>193.36</ele>
        <time>2014-03-09T09:25:57Z</time>
      </trkpt>
      <trkpt lat="44.53578" lon="0.99522">
        <ele>193.84</ele>
        <time>2014-03-09T09:26:07Z</time>
      </trkpt>
      <trkpt lat="44.53593" lon="0.99494">
        <ele>192.88</ele>
        <time>2014-03-09T09:26:15Z</time>
      </trkpt>
      <trkpt lat="44.53608" lon="0.99501">
        <ele>192.4</ele>
        <time>2014-03-09T09:26:21Z</time>
      </trkpt>
      <trkpt lat="44.53636" lon="0.99516">
        <ele>198.17</ele>
        <time>2014-03-09T09:26:31Z</time>
      </trkpt>
      <trkpt lat="44.53643" lon="0.99522">
        <ele>199.61</ele>
        <time>2014-03-09T09:26:34Z</time>
      </trkpt>
      <trkpt lat="44.53651" lon="0.99517">
        <ele>202.98</ele>
        <time>2014-03-09T09:26:40Z</time>
      </trkpt>
      <trkpt lat="44.53655" lon="0.9949">
        <ele>206.34</ele>
        <time>2014-03-09T09:26:49Z</time>
      </trkpt>
      <trkpt lat="44.53661" lon="0.99466">
        <ele>206.34</ele>
        <time>2014-03-09T09:27:01Z</time>
      </trkpt>
      <trkpt lat="44.53663" lon="0.9946">
        <ele>206.82</ele>
        <time>2014-03-09T09:27:06Z</time>
      </trkpt>
      <trkpt lat="44.53664" lon="0.99438">
        <ele>208.74</ele>
        <time>2014-03-09T09:27:19Z</time>
      </trkpt>
      <trkpt lat="44.53664" lon="0.99437">
        <ele>209.7</ele>
        <time>2014-03-09T09:27:22Z</time>
      </trkpt>
      <trkpt lat="44.53665" lon="0.99435">
        <ele>209.7</ele>
        <time>2014-03-09T09:27:24Z</time>
      </trkpt>
      <trkpt lat="44.53661" lon="0.99426">
        <ele>212.11</ele>
        <time>2014-03-09T09:27:29Z</time>
      </trkpt>
      <trkpt lat="44.5366" lon="0.99421">
        <ele>213.07</ele>
        <time>2014-03-09T09:27:31Z</time>
      </trkpt>
      <trkpt lat="44.53657" lon="0.99409">
        <ele>214.51</ele>
        <time>2014-03-09T09:27:37Z</time>
      </trkpt>
      <trkpt lat="44.53657" lon="0.99396">
        <ele>216.43</ele>
        <time>2014-03-09T09:27:50Z</time>
      </trkpt>
      <trkpt lat="44.53659" lon="0.99395">
        <ele>215.95</ele>
        <time>2014-03-09T09:27:53Z</time>
      </trkpt>
      <trkpt lat="44.53666" lon="0.99391">
        <ele>213.07</ele>
        <time>2014-03-09T09:28:05Z</time>
      </trkpt>
      <trkpt lat="44.53674" lon="0.99385">
        <ele>213.07</ele>
        <time>2014-03-09T09:28:16Z</time>
      </trkpt>
      <trkpt lat="44.53676" lon="0.9938">
        <ele>213.07</ele>
        <time>2014-03-09T09:28:28Z</time>
      </trkpt>
      <trkpt lat="44.53678" lon="0.9938">
        <ele>211.63</ele>
        <time>2014-03-09T09:28:34Z</time>
      </trkpt>
      <trkpt lat="44.53678" lon="0.99371">
        <ele>211.63</ele>
        <time>2014-03-09T09:28:39Z</time>
      </trkpt>
      <trkpt lat="44.5368" lon="0.99343">
        <ele>213.07</ele>
        <time>2014-03-09T09:28:49Z</time>
      </trkpt>
      <trkpt lat="44.53688" lon="0.99312">
        <ele>214.99</ele>
        <time>2014-03-09T09:29:03Z</time>
      </trkpt>
      <trkpt lat="44.53682" lon="0.9931">
        <ele>215.95</ele>
        <time>2014-03-09T09:29:10Z</time>
      </trkpt>
      <trkpt lat="44.5369" lon="0.99311">
        <ele>216.91</ele>
        <time>2014-03-09T09:29:18Z</time>
      </trkpt>
      <trkpt lat="44.53698" lon="0.99312">
        <ele>216.43</ele>
        <time>2014-03-09T09:29:24Z</time>
      </trkpt>
      <trkpt lat="44.537" lon="0.99313">
        <ele>216.43</ele>
        <time>2014-03-09T09:29:26Z</time>
      </trkpt>
      <trkpt lat="44.53724" lon="0.99322">
        <ele>213.55</ele>
        <time>2014-03-09T09:29:41Z</time>
      </trkpt>
      <trkpt lat="44.53759" lon="0.99336">
        <ele>209.7</ele>
        <time>2014-03-09T09:29:55Z</time>
      </trkpt>
      <trkpt lat="44.53791" lon="0.99351">
        <ele>207.78</ele>
        <time>2014-03-09T09:30:07Z</time>
      </trkpt>
      <trkpt lat="44.53834" lon="0.99373">
        <ele>208.26</ele>
        <time>2014-03-09T09:30:24Z</time>
      </trkpt>
      <trkpt lat="44.53841" lon="0.99376">
        <ele>208.74</ele>
        <time>2014-03-09T09:30:27Z</time>
      </trkpt>
      <trkpt lat="44.53866" lon="0.99351">
        <ele>210.67</ele>
        <time>2014-03-09T09:30:41Z</time>
      </trkpt>
      <trkpt lat="44.53883" lon="0.99297">
        <ele>210.19</ele>
        <time>2014-03-09T09:30:55Z</time>
      </trkpt>
      <trkpt lat="44.53885" lon="0.99292">
        <ele>210.19</ele>
        <time>2014-03-09T09:30:57Z</time>
      </trkpt>
      <trkpt lat="44.53866" lon="0.9929">
        <ele>207.78</ele>
        <time>2014-03-09T09:31:05Z</time>
      </trkpt>
      <trkpt lat="44.53838" lon="0.99282">
        <ele>205.38</ele>
        <time>2014-03-09T09:31:11Z</time>
      </trkpt>
      <trkpt lat="44.53829" lon="0.99275">
        <ele>204.9</ele>
        <time>2014-03-09T09:31:13Z</time>
      </trkpt>
      <trkpt lat="44.53812" lon="0.99258">
        <ele>204.42</ele>
        <time>2014-03-09T09:31:18Z</time>
      </trkpt>
      <trkpt lat="44.53787" lon="0.99252">
        <ele>206.82</ele>
        <time>2014-03-09T09:31:28Z</time>
      </trkpt>
      <trkpt lat="44.53768" lon="0.99241">
        <ele>210.67</ele>
        <time>2014-03-09T09:31:38Z</time>
      </trkpt>
      <trkpt lat="44.53764" lon="0.9924">
        <ele>211.63</ele>
        <time>2014-03-09T09:31:40Z</time>
      </trkpt>
      <trkpt lat="44.53759" lon="0.99234">
        <ele>212.59</ele>
        <time>2014-03-09T09:31:44Z</time>
      </trkpt>
      <trkpt lat="44.53757" lon="0.99227">
        <ele>212.59</ele>
        <time>2014-03-09T09:31:47Z</time>
      </trkpt>
      <trkpt lat="44.53751" lon="0.99199">
        <ele>211.63</ele>
        <time>2014-03-09T09:31:57Z</time>
      </trkpt>
      <trkpt lat="44.5375" lon="0.99193">
        <ele>211.63</ele>
        <time>2014-03-09T09:31:58Z</time>
      </trkpt>
      <trkpt lat="44.53761" lon="0.99159">
        <ele>205.86</ele>
        <time>2014-03-09T09:32:07Z</time>
      </trkpt>
      <trkpt lat="44.53793" lon="0.99165">
        <ele>199.13</ele>
        <time>2014-03-09T09:32:13Z</time>
      </trkpt>
      <trkpt lat="44.53806" lon="0.99165">
        <ele>196.73</ele>
        <time>2014-03-09T09:32:15Z</time>
      </trkpt>
      <trkpt lat="44.53834" lon="0.99161">
        <ele>191.92</ele>
        <time>2014-03-09T09:32:20Z</time>
      </trkpt>
      <trkpt lat="44.53901" lon="0.99111">
        <ele>186.63</ele>
        <time>2014-03-09T09:32:33Z</time>
      </trkpt>
      <trkpt lat="44.5393" lon="0.99079">
        <ele>184.23</ele>
        <time>2014-03-09T09:32:38Z</time>
      </trkpt>
      <trkpt lat="44.53945" lon="0.99055">
        <ele>182.31</ele>
        <time>2014-03-09T09:32:41Z</time>
      </trkpt>
      <trkpt lat="44.53954" lon="0.99033">
        <ele>179.9</ele>
        <time>2014-03-09T09:32:44Z</time>
      </trkpt>
      <trkpt lat="44.53952" lon="0.99026">
        <ele>177.98</ele>
        <time>2014-03-09T09:32:49Z</time>
      </trkpt>
      <trkpt lat="44.53937" lon="0.99024">
        <ele>175.1</ele>
        <time>2014-03-09T09:32:56Z</time>
      </trkpt>
      <trkpt lat="44.53921" lon="0.99027">
        <ele>170.29</ele>
        <time>2014-03-09T09:33:08Z</time>
      </trkpt>
      <trkpt lat="44.53913" lon="0.99028">
        <ele>167.89</ele>
        <time>2014-03-09T09:33:19Z</time>
      </trkpt>
      <trkpt lat="44.5388" lon="0.99">
        <ele>162.6</ele>
        <time>2014-03-09T09:33:27Z</time>
      </trkpt>
      <trkpt lat="44.53868" lon="0.98978">
        <ele>155.87</ele>
        <time>2014-03-09T09:33:34Z</time>
      </trkpt>
      <trkpt lat="44.53872" lon="0.98968">
        <ele>152.99</ele>
        <time>2014-03-09T09:33:38Z</time>
      </trkpt>
      <trkpt lat="44.53907" lon="0.98954">
        <ele>151.06</ele>
        <time>2014-03-09T09:33:49Z</time>
      </trkpt>
      <trkpt lat="44.53933" lon="0.98942">
        <ele>151.54</ele>
        <time>2014-03-09T09:33:58Z</time>
      </trkpt>
      <trkpt lat="44.5394" lon="0.98936">
        <ele>150.58</ele>
        <time>2014-03-09T09:34:02Z</time>
      </trkpt>
      <trkpt lat="44.53946" lon="0.98928">
        <ele>151.54</ele>
        <time>2014-03-09T09:34:07Z</time>
      </trkpt>
      <trkpt lat="44.53948" lon="0.98916">
        <ele>152.51</ele>
        <time>2014-03-09T09:34:21Z</time>
      </trkpt>
      <trkpt lat="44.53951" lon="0.98916">
        <ele>155.39</ele>
        <time>2014-03-09T09:34:38Z</time>
      </trkpt>
      <trkpt lat="44.53957" lon="0.9892">
        <ele>156.83</ele>
        <time>2014-03-09T09:35:04Z</time>
      </trkpt>
      <trkpt lat="44.53962" lon="0.98913">
        <ele>163.08</ele>
        <time>2014-03-09T09:35:35Z</time>
      </trkpt>
      <trkpt lat="44.53963" lon="0.98914">
        <ele>165.48</ele>
        <time>2014-03-09T09:36:07Z</time>
      </trkpt>
      <trkpt lat="44.53961" lon="0.98912">
        <ele>155.87</ele>
        <time>2014-03-09T09:36:33Z</time>
      </trkpt>
      <trkpt lat="44.53959" lon="0.98913">
        <ele>159.24</ele>
        <time>2014-03-09T09:37:01Z</time>
      </trkpt>
      <trkpt lat="44.53958" lon="0.98917">
        <ele>165</ele>
        <time>2014-03-09T09:37:34Z</time>
      </trkpt>
      <trkpt lat="44.53955" lon="0.98915">
        <ele>163.08</ele>
        <time>2014-03-09T09:38:05Z</time>
      </trkpt>
      <trkpt lat="44.53956" lon="0.98914">
        <ele>162.6</ele>
        <time>2014-03-09T09:38:30Z</time>
      </trkpt>
      <trkpt lat="44.53957" lon="0.98914">
        <ele>165.96</ele>
        <time>2014-03-09T09:39:05Z</time>
      </trkpt>
      <trkpt lat="44.53961" lon="0.98914">
        <ele>171.25</ele>
        <time>2014-03-09T09:39:33Z</time>
      </trkpt>
      <trkpt lat="44.53961" lon="0.98912">
        <ele>175.1</ele>
        <time>2014-03-09T09:40:01Z</time>
      </trkpt>
      <trkpt lat="44.53962" lon="0.98912">
        <ele>177.02</ele>
        <time>2014-03-09T09:40:21Z</time>
      </trkpt>
      <trkpt lat="44.53964" lon="0.98911">
        <ele>177.02</ele>
        <time>2014-03-09T09:40:50Z</time>
      </trkpt>
      <trkpt lat="44.53961" lon="0.9891">
        <ele>173.66</ele>
        <time>2014-03-09T09:41:18Z</time>
      </trkpt>
      <trkpt lat="44.53958" lon="0.98918">
        <ele>169.33</ele>
        <time>2014-03-09T09:41:48Z</time>
      </trkpt>
      <trkpt lat="44.53955" lon="0.98917">
        <ele>166.45</ele>
        <time>2014-03-09T09:42:19Z</time>
      </trkpt>
      <trkpt lat="44.53957" lon="0.98916">
        <ele>164.52</ele>
        <time>2014-03-09T09:42:54Z</time>
      </trkpt>
      <trkpt lat="44.53958" lon="0.98915">
        <ele>172.21</ele>
        <time>2014-03-09T09:43:22Z</time>
      </trkpt>
      <trkpt lat="44.53965" lon="0.98912">
        <ele>172.69</ele>
        <time>2014-03-09T09:43:50Z</time>
      </trkpt>
      <trkpt lat="44.53966" lon="0.98913">
        <ele>172.69</ele>
        <time>2014-03-09T09:44:23Z</time>
      </trkpt>
      <trkpt lat="44.53954" lon="0.98916">
        <ele>167.41</ele>
        <time>2014-03-09T09:44:44Z</time>
      </trkpt>
      <trkpt lat="44.53955" lon="0.98901">
        <ele>163.08</ele>
        <time>2014-03-09T09:44:57Z</time>
      </trkpt>
      <trkpt lat="44.53957" lon="0.98898">
        <ele>162.6</ele>
        <time>2014-03-09T09:45:00Z</time>
      </trkpt>
      <trkpt lat="44.53961" lon="0.98892">
        <ele>162.12</ele>
        <time>2014-03-09T09:45:05Z</time>
      </trkpt>
      <trkpt lat="44.53975" lon="0.98871">
        <ele>158.75</ele>
        <time>2014-03-09T09:45:19Z</time>
      </trkpt>
      <trkpt lat="44.5399" lon="0.98855">
        <ele>159.72</ele>
        <time>2014-03-09T09:45:33Z</time>
      </trkpt>
      <trkpt lat="44.5401" lon="0.9884">
        <ele>162.6</ele>
        <time>2014-03-09T09:45:47Z</time>
      </trkpt>
      <trkpt lat="44.5403" lon="0.9883">
        <ele>163.56</ele>
        <time>2014-03-09T09:45:59Z</time>
      </trkpt>
      <trkpt lat="44.54054" lon="0.98818">
        <ele>165.48</ele>
        <time>2014-03-09T09:46:11Z</time>
      </trkpt>
      <trkpt lat="44.54056" lon="0.98817">
        <ele>165.48</ele>
        <time>2014-03-09T09:46:12Z</time>
      </trkpt>
      <trkpt lat="44.54074" lon="0.98806">
        <ele>166.45</ele>
        <time>2014-03-09T09:46:23Z</time>
      </trkpt>
      <trkpt lat="44.54091" lon="0.9879">
        <ele>166.45</ele>
        <time>2014-03-09T09:46:33Z</time>
      </trkpt>
      <trkpt lat="44.541" lon="0.9878">
        <ele>166.93</ele>
        <time>2014-03-09T09:46:40Z</time>
      </trkpt>
      <trkpt lat="44.54118" lon="0.98752">
        <ele>170.29</ele>
        <time>2014-03-09T09:46:53Z</time>
      </trkpt>
      <trkpt lat="44.54123" lon="0.98746">
        <ele>170.77</ele>
        <time>2014-03-09T09:46:56Z</time>
      </trkpt>
      <trkpt lat="44.5413" lon="0.98737">
        <ele>170.77</ele>
        <time>2014-03-09T09:47:01Z</time>
      </trkpt>
      <trkpt lat="44.54148" lon="0.98714">
        <ele>169.81</ele>
        <time>2014-03-09T09:47:12Z</time>
      </trkpt>
      <trkpt lat="44.54169" lon="0.98687">
        <ele>172.69</ele>
        <time>2014-03-09T09:47:25Z</time>
      </trkpt>
      <trkpt lat="44.54182" lon="0.98655">
        <ele>175.1</ele>
        <time>2014-03-09T09:47:38Z</time>
      </trkpt>
      <trkpt lat="44.54183" lon="0.9865">
        <ele>175.58</ele>
        <time>2014-03-09T09:47:40Z</time>
      </trkpt>
      <trkpt lat="44.54204" lon="0.98628">
        <ele>181.35</ele>
        <time>2014-03-09T09:47:53Z</time>
      </trkpt>
      <trkpt lat="44.54226" lon="0.98611">
        <ele>185.19</ele>
        <time>2014-03-09T09:48:05Z</time>
      </trkpt>
      <trkpt lat="44.54228" lon="0.98609">
        <ele>185.67</ele>
        <time>2014-03-09T09:48:06Z</time>
      </trkpt>
      <trkpt lat="44.54234" lon="0.98606">
        <ele>186.63</ele>
        <time>2014-03-09T09:48:10Z</time>
      </trkpt>
      <trkpt lat="44.54236" lon="0.98585">
        <ele>186.15</ele>
        <time>2014-03-09T09:48:21Z</time>
      </trkpt>
      <trkpt lat="44.54228" lon="0.98555">
        <ele>184.23</ele>
        <time>2014-03-09T09:48:32Z</time>
      </trkpt>
      <trkpt lat="44.54218" lon="0.98508">
        <ele>182.31</ele>
        <time>2014-03-09T09:48:47Z</time>
      </trkpt>
      <trkpt lat="44.54209" lon="0.98477">
        <ele>182.79</ele>
        <time>2014-03-09T09:48:56Z</time>
      </trkpt>
      <trkpt lat="44.54235" lon="0.9843">
        <ele>182.31</ele>
        <time>2014-03-09T09:49:10Z</time>
      </trkpt>
      <trkpt lat="44.54265" lon="0.98395">
        <ele>182.79</ele>
        <time>2014-03-09T09:49:24Z</time>
      </trkpt>
      <trkpt lat="44.54286" lon="0.98381">
        <ele>184.71</ele>
        <time>2014-03-09T09:49:34Z</time>
      </trkpt>
      <trkpt lat="44.54314" lon="0.9835">
        <ele>186.15</ele>
        <time>2014-03-09T09:49:46Z</time>
      </trkpt>
      <trkpt lat="44.5432" lon="0.98308">
        <ele>188.56</ele>
        <time>2014-03-09T09:49:57Z</time>
      </trkpt>
      <trkpt lat="44.54323" lon="0.98259">
        <ele>197.69</ele>
        <time>2014-03-09T09:50:09Z</time>
      </trkpt>
      <trkpt lat="44.54345" lon="0.98221">
        <ele>200.09</ele>
        <time>2014-03-09T09:50:22Z</time>
      </trkpt>
      <trkpt lat="44.54378" lon="0.982">
        <ele>202.01</ele>
        <time>2014-03-09T09:50:35Z</time>
      </trkpt>
      <trkpt lat="44.54414" lon="0.98182">
        <ele>202.01</ele>
        <time>2014-03-09T09:50:48Z</time>
      </trkpt>
      <trkpt lat="44.5444" lon="0.98159">
        <ele>203.94</ele>
        <time>2014-03-09T09:51:01Z</time>
      </trkpt>
      <trkpt lat="44.54441" lon="0.98158">
        <ele>203.94</ele>
        <time>2014-03-09T09:51:02Z</time>
      </trkpt>
      <trkpt lat="44.54449" lon="0.98164">
        <ele>203.46</ele>
        <time>2014-03-09T09:51:08Z</time>
      </trkpt>
      <trkpt lat="44.54466" lon="0.98196">
        <ele>202.49</ele>
        <time>2014-03-09T09:51:24Z</time>
      </trkpt>
      <trkpt lat="44.54489" lon="0.98225">
        <ele>205.38</ele>
        <time>2014-03-09T09:51:39Z</time>
      </trkpt>
      <trkpt lat="44.54517" lon="0.9824">
        <ele>208.26</ele>
        <time>2014-03-09T09:51:52Z</time>
      </trkpt>
      <trkpt lat="44.54526" lon="0.98238">
        <ele>208.74</ele>
        <time>2014-03-09T09:51:56Z</time>
      </trkpt>
      <trkpt lat="44.54538" lon="0.98214">
        <ele>206.82</ele>
        <time>2014-03-09T09:52:03Z</time>
      </trkpt>
      <trkpt lat="44.54546" lon="0.98165">
        <ele>202.01</ele>
        <time>2014-03-09T09:52:09Z</time>
      </trkpt>
      <trkpt lat="44.54552" lon="0.9813">
        <ele>199.13</ele>
        <time>2014-03-09T09:52:12Z</time>
      </trkpt>
      <trkpt lat="44.54581" lon="0.98067">
        <ele>192.4</ele>
        <time>2014-03-09T09:52:18Z</time>
      </trkpt>
      <trkpt lat="44.54605" lon="0.98032">
        <ele>189.52</ele>
        <time>2014-03-09T09:52:25Z</time>
      </trkpt>
      <trkpt lat="44.54609" lon="0.98017">
        <ele>188.56</ele>
        <time>2014-03-09T09:52:27Z</time>
      </trkpt>
      <trkpt lat="44.54618" lon="0.97993">
        <ele>187.11</ele>
        <time>2014-03-09T09:52:30Z</time>
      </trkpt>
      <trkpt lat="44.5464" lon="0.97965">
        <ele>184.71</ele>
        <time>2014-03-09T09:52:35Z</time>
      </trkpt>
      <trkpt lat="44.54648" lon="0.97955">
        <ele>183.27</ele>
        <time>2014-03-09T09:52:37Z</time>
      </trkpt>
      <trkpt lat="44.54679" lon="0.97922">
        <ele>178.94</ele>
        <time>2014-03-09T09:52:45Z</time>
      </trkpt>
      <trkpt lat="44.54682" lon="0.97924">
        <ele>178.46</ele>
        <time>2014-03-09T09:52:46Z</time>
      </trkpt>
      <trkpt lat="44.5472" lon="0.97958">
        <ele>180.38</ele>
        <time>2014-03-09T09:52:59Z</time>
      </trkpt>
      <trkpt lat="44.54731" lon="0.97965">
        <ele>182.79</ele>
        <time>2014-03-09T09:53:04Z</time>
      </trkpt>
      <trkpt lat="44.5476" lon="0.97931">
        <ele>184.71</ele>
        <time>2014-03-09T09:53:15Z</time>
      </trkpt>
      <trkpt lat="44.54791" lon="0.9789">
        <ele>184.23</ele>
        <time>2014-03-09T09:53:25Z</time>
      </trkpt>
      <trkpt lat="44.54802" lon="0.97878">
        <ele>182.79</ele>
        <time>2014-03-09T09:53:28Z</time>
      </trkpt>
      <trkpt lat="44.54819" lon="0.97867">
        <ele>181.83</ele>
        <time>2014-03-09T09:53:32Z</time>
      </trkpt>
      <trkpt lat="44.54836" lon="0.97868">
        <ele>181.35</ele>
        <time>2014-03-09T09:53:36Z</time>
      </trkpt>
      <trkpt lat="44.5487" lon="0.97881">
        <ele>186.63</ele>
        <time>2014-03-09T09:53:47Z</time>
      </trkpt>
      <trkpt lat="44.54899" lon="0.97882">
        <ele>195.77</ele>
        <time>2014-03-09T09:53:57Z</time>
      </trkpt>
      <trkpt lat="44.54935" lon="0.97861">
        <ele>199.61</ele>
        <time>2014-03-09T09:54:09Z</time>
      </trkpt>
      <trkpt lat="44.54948" lon="0.97827">
        <ele>202.01</ele>
        <time>2014-03-09T09:54:19Z</time>
      </trkpt>
      <trkpt lat="44.54962" lon="0.97779">
        <ele>199.61</ele>
        <time>2014-03-09T09:54:30Z</time>
      </trkpt>
      <trkpt lat="44.5497" lon="0.97742">
        <ele>200.09</ele>
        <time>2014-03-09T09:54:40Z</time>
      </trkpt>
      <trkpt lat="44.54968" lon="0.97709">
        <ele>205.86</ele>
        <time>2014-03-09T09:54:51Z</time>
      </trkpt>
      <trkpt lat="44.54957" lon="0.97676">
        <ele>207.3</ele>
        <time>2014-03-09T09:55:03Z</time>
      </trkpt>
      <trkpt lat="44.54952" lon="0.9764">
        <ele>206.82</ele>
        <time>2014-03-09T09:55:15Z</time>
      </trkpt>
      <trkpt lat="44.54955" lon="0.97592">
        <ele>205.38</ele>
        <time>2014-03-09T09:55:28Z</time>
      </trkpt>
      <trkpt lat="44.5496" lon="0.97562">
        <ele>205.38</ele>
        <time>2014-03-09T09:55:34Z</time>
      </trkpt>
      <trkpt lat="44.54963" lon="0.97548">
        <ele>204.9</ele>
        <time>2014-03-09T09:55:36Z</time>
      </trkpt>
      <trkpt lat="44.54965" lon="0.97492">
        <ele>198.65</ele>
        <time>2014-03-09T09:55:44Z</time>
      </trkpt>
      <trkpt lat="44.54948" lon="0.97444">
        <ele>191.44</ele>
        <time>2014-03-09T09:55:51Z</time>
      </trkpt>
      <trkpt lat="44.54943" lon="0.97398">
        <ele>189.52</ele>
        <time>2014-03-09T09:55:58Z</time>
      </trkpt>
      <trkpt lat="44.54946" lon="0.97385">
        <ele>190</ele>
        <time>2014-03-09T09:56:00Z</time>
      </trkpt>
      <trkpt lat="44.54957" lon="0.97351">
        <ele>190.48</ele>
        <time>2014-03-09T09:56:06Z</time>
      </trkpt>
      <trkpt lat="44.54963" lon="0.97323">
        <ele>190.48</ele>
        <time>2014-03-09T09:56:11Z</time>
      </trkpt>
      <trkpt lat="44.54975" lon="0.97295">
        <ele>190.48</ele>
        <time>2014-03-09T09:56:16Z</time>
      </trkpt>
      <trkpt lat="44.54991" lon="0.97281">
        <ele>189.52</ele>
        <time>2014-03-09T09:56:20Z</time>
      </trkpt>
      <trkpt lat="44.55027" lon="0.97237">
        <ele>183.75</ele>
        <time>2014-03-09T09:56:30Z</time>
      </trkpt>
      <trkpt lat="44.55029" lon="0.9723">
        <ele>182.79</ele>
        <time>2014-03-09T09:56:32Z</time>
      </trkpt>
      <trkpt lat="44.55045" lon="0.97154">
        <ele>174.14</ele>
        <time>2014-03-09T09:56:40Z</time>
      </trkpt>
      <trkpt lat="44.5505" lon="0.97136">
        <ele>172.21</ele>
        <time>2014-03-09T09:56:42Z</time>
      </trkpt>
      <trkpt lat="44.55051" lon="0.9712">
        <ele>169.81</ele>
        <time>2014-03-09T09:56:44Z</time>
      </trkpt>
      <trkpt lat="44.5505" lon="0.971">
        <ele>167.89</ele>
        <time>2014-03-09T09:56:47Z</time>
      </trkpt>
      <trkpt lat="44.55054" lon="0.97074">
        <ele>165.48</ele>
        <time>2014-03-09T09:56:51Z</time>
      </trkpt>
      <trkpt lat="44.55072" lon="0.97033">
        <ele>160.68</ele>
        <time>2014-03-09T09:57:00Z</time>
      </trkpt>
      <trkpt lat="44.55073" lon="0.9703">
        <ele>160.68</ele>
        <time>2014-03-09T09:57:01Z</time>
      </trkpt>
      <trkpt lat="44.55075" lon="0.97016">
        <ele>155.39</ele>
        <time>2014-03-09T09:57:15Z</time>
      </trkpt>
      <trkpt lat="44.55075" lon="0.97011">
        <ele>159.72</ele>
        <time>2014-03-09T09:57:50Z</time>
      </trkpt>
      <trkpt lat="44.55076" lon="0.97018">
        <ele>160.68</ele>
        <time>2014-03-09T09:58:03Z</time>
      </trkpt>
      <trkpt lat="44.55076" lon="0.97021">
        <ele>160.68</ele>
        <time>2014-03-09T09:58:08Z</time>
      </trkpt>
      <trkpt lat="44.55073" lon="0.9703">
        <ele>163.08</ele>
        <time>2014-03-09T09:58:14Z</time>
      </trkpt>
      <trkpt lat="44.55063" lon="0.97051">
        <ele>168.85</ele>
        <time>2014-03-09T09:58:31Z</time>
      </trkpt>
      <trkpt lat="44.55058" lon="0.97059">
        <ele>171.73</ele>
        <time>2014-03-09T09:58:38Z</time>
      </trkpt>
      <trkpt lat="44.55054" lon="0.97076">
        <ele>177.5</ele>
        <time>2014-03-09T09:58:52Z</time>
      </trkpt>
      <trkpt lat="44.55054" lon="0.97077">
        <ele>177.02</ele>
        <time>2014-03-09T09:58:53Z</time>
      </trkpt>
      <trkpt lat="44.55055" lon="0.971">
        <ele>176.06</ele>
        <time>2014-03-09T09:59:00Z</time>
      </trkpt>
      <trkpt lat="44.55053" lon="0.97128">
        <ele>176.54</ele>
        <time>2014-03-09T09:59:07Z</time>
      </trkpt>
      <trkpt lat="44.55047" lon="0.97153">
        <ele>179.42</ele>
        <time>2014-03-09T09:59:15Z</time>
      </trkpt>
      <trkpt lat="44.55042" lon="0.97183">
        <ele>184.23</ele>
        <time>2014-03-09T09:59:25Z</time>
      </trkpt>
      <trkpt lat="44.55039" lon="0.97202">
        <ele>189.52</ele>
        <time>2014-03-09T09:59:35Z</time>
      </trkpt>
      <trkpt lat="44.55038" lon="0.97204">
        <ele>186.63</ele>
        <time>2014-03-09T09:59:46Z</time>
      </trkpt>
      <trkpt lat="44.55038" lon="0.972">
        <ele>185.67</ele>
        <time>2014-03-09T09:59:48Z</time>
      </trkpt>
      <trkpt lat="44.55045" lon="0.97163">
        <ele>181.83</ele>
        <time>2014-03-09T09:59:53Z</time>
      </trkpt>
      <trkpt lat="44.55054" lon="0.97127">
        <ele>178.46</ele>
        <time>2014-03-09T09:59:57Z</time>
      </trkpt>
      <trkpt lat="44.55052" lon="0.97072">
        <ele>171.25</ele>
        <time>2014-03-09T10:00:06Z</time>
      </trkpt>
      <trkpt lat="44.5506" lon="0.97056">
        <ele>170.29</ele>
        <time>2014-03-09T10:00:09Z</time>
      </trkpt>
      <trkpt lat="44.55076" lon="0.97018">
        <ele>164.04</ele>
        <time>2014-03-09T10:00:16Z</time>
      </trkpt>
      <trkpt lat="44.5509" lon="0.96967">
        <ele>152.99</ele>
        <time>2014-03-09T10:00:24Z</time>
      </trkpt>
      <trkpt lat="44.55093" lon="0.96965">
        <ele>151.54</ele>
        <time>2014-03-09T10:00:25Z</time>
      </trkpt>
      <trkpt lat="44.55102" lon="0.9696">
        <ele>147.7</ele>
        <time>2014-03-09T10:00:28Z</time>
      </trkpt>
      <trkpt lat="44.55125" lon="0.96941">
        <ele>140.49</ele>
        <time>2014-03-09T10:00:35Z</time>
      </trkpt>
      <trkpt lat="44.55128" lon="0.96926">
        <ele>139.53</ele>
        <time>2014-03-09T10:00:37Z</time>
      </trkpt>
      <trkpt lat="44.55145" lon="0.96898">
        <ele>138.57</ele>
        <time>2014-03-09T10:00:42Z</time>
      </trkpt>
      <trkpt lat="44.55181" lon="0.96856">
        <ele>132.32</ele>
        <time>2014-03-09T10:00:54Z</time>
      </trkpt>
      <trkpt lat="44.55185" lon="0.96845">
        <ele>130.4</ele>
        <time>2014-03-09T10:00:59Z</time>
      </trkpt>
      <trkpt lat="44.55189" lon="0.96824">
        <ele>127.03</ele>
        <time>2014-03-09T10:01:05Z</time>
      </trkpt>
      <trkpt lat="44.55192" lon="0.96809">
        <ele>124.15</ele>
        <time>2014-03-09T10:01:18Z</time>
      </trkpt>
      <trkpt lat="44.55196" lon="0.96802">
        <ele>130.88</ele>
        <time>2014-03-09T10:01:39Z</time>
      </trkpt>
      <trkpt lat="44.55197" lon="0.96799">
        <ele>131.36</ele>
        <time>2014-03-09T10:01:49Z</time>
      </trkpt>
      <trkpt lat="44.55196" lon="0.96787">
        <ele>131.84</ele>
        <time>2014-03-09T10:01:53Z</time>
      </trkpt>
      <trkpt lat="44.55187" lon="0.96728">
        <ele>120.3</ele>
        <time>2014-03-09T10:02:05Z</time>
      </trkpt>
      <trkpt lat="44.55186" lon="0.96722">
        <ele>119.34</ele>
        <time>2014-03-09T10:02:06Z</time>
      </trkpt>
      <trkpt lat="44.55184" lon="0.96702">
        <ele>115.98</ele>
        <time>2014-03-09T10:02:09Z</time>
      </trkpt>
      <trkpt lat="44.55185" lon="0.96672">
        <ele>110.21</ele>
        <time>2014-03-09T10:02:13Z</time>
      </trkpt>
      <trkpt lat="44.5519" lon="0.9665">
        <ele>107.32</ele>
        <time>2014-03-09T10:02:16Z</time>
      </trkpt>
      <trkpt lat="44.55201" lon="0.96596">
        <ele>103.48</ele>
        <time>2014-03-09T10:02:27Z</time>
      </trkpt>
      <trkpt lat="44.55211" lon="0.96584">
        <ele>114.53</ele>
        <time>2014-03-09T10:02:43Z</time>
      </trkpt>
      <trkpt lat="44.55215" lon="0.96578">
        <ele>127.03</ele>
        <time>2014-03-09T10:03:09Z</time>
      </trkpt>
      <trkpt lat="44.5522" lon="0.96576">
        <ele>128.95</ele>
        <time>2014-03-09T10:03:13Z</time>
      </trkpt>
      <trkpt lat="44.55229" lon="0.96572">
        <ele>131.36</ele>
        <time>2014-03-09T10:03:24Z</time>
      </trkpt>
      <trkpt lat="44.55241" lon="0.96568">
        <ele>134.24</ele>
        <time>2014-03-09T10:03:35Z</time>
      </trkpt>
      <trkpt lat="44.55255" lon="0.96564">
        <ele>135.68</ele>
        <time>2014-03-09T10:03:49Z</time>
      </trkpt>
      <trkpt lat="44.55259" lon="0.9656">
        <ele>136.64</ele>
        <time>2014-03-09T10:04:07Z</time>
      </trkpt>
      <trkpt lat="44.55262" lon="0.96564">
        <ele>139.53</ele>
        <time>2014-03-09T10:04:24Z</time>
      </trkpt>
      <trkpt lat="44.55262" lon="0.96567">
        <ele>140.01</ele>
        <time>2014-03-09T10:04:27Z</time>
      </trkpt>
      <trkpt lat="44.55273" lon="0.96604">
        <ele>140.49</ele>
        <time>2014-03-09T10:04:41Z</time>
      </trkpt>
      <trkpt lat="44.55295" lon="0.96645">
        <ele>140.49</ele>
        <time>2014-03-09T10:04:54Z</time>
      </trkpt>
      <trkpt lat="44.55318" lon="0.96679">
        <ele>141.93</ele>
        <time>2014-03-09T10:05:07Z</time>
      </trkpt>
      <trkpt lat="44.55344" lon="0.96695">
        <ele>145.78</ele>
        <time>2014-03-09T10:05:20Z</time>
      </trkpt>
      <trkpt lat="44.55368" lon="0.96688">
        <ele>147.7</ele>
        <time>2014-03-09T10:05:32Z</time>
      </trkpt>
      <trkpt lat="44.55393" lon="0.96679">
        <ele>149.62</ele>
        <time>2014-03-09T10:05:43Z</time>
      </trkpt>
      <trkpt lat="44.55402" lon="0.96674">
        <ele>150.1</ele>
        <time>2014-03-09T10:05:48Z</time>
      </trkpt>
      <trkpt lat="44.55433" lon="0.96668">
        <ele>148.66</ele>
        <time>2014-03-09T10:06:03Z</time>
      </trkpt>
      <trkpt lat="44.55461" lon="0.96673">
        <ele>148.66</ele>
        <time>2014-03-09T10:06:18Z</time>
      </trkpt>
      <trkpt lat="44.55489" lon="0.9667">
        <ele>146.74</ele>
        <time>2014-03-09T10:06:32Z</time>
      </trkpt>
      <trkpt lat="44.55491" lon="0.96669">
        <ele>146.74</ele>
        <time>2014-03-09T10:06:33Z</time>
      </trkpt>
      <trkpt lat="44.55494" lon="0.96665">
        <ele>146.74</ele>
        <time>2014-03-09T10:06:36Z</time>
      </trkpt>
      <trkpt lat="44.55472" lon="0.96659">
        <ele>149.14</ele>
        <time>2014-03-09T10:06:49Z</time>
      </trkpt>
      <trkpt lat="44.55452" lon="0.96635">
        <ele>150.1</ele>
        <time>2014-03-09T10:07:02Z</time>
      </trkpt>
      <trkpt lat="44.5543" lon="0.96606">
        <ele>153.47</ele>
        <time>2014-03-09T10:07:17Z</time>
      </trkpt>
      <trkpt lat="44.55425" lon="0.96597">
        <ele>154.43</ele>
        <time>2014-03-09T10:07:21Z</time>
      </trkpt>
      <trkpt lat="44.55421" lon="0.96571">
        <ele>158.75</ele>
        <time>2014-03-09T10:07:32Z</time>
      </trkpt>
      <trkpt lat="44.55421" lon="0.9656">
        <ele>159.24</ele>
        <time>2014-03-09T10:07:36Z</time>
      </trkpt>
      <trkpt lat="44.55421" lon="0.96519">
        <ele>162.12</ele>
        <time>2014-03-09T10:07:51Z</time>
      </trkpt>
      <trkpt lat="44.55432" lon="0.96485">
        <ele>162.12</ele>
        <time>2014-03-09T10:08:02Z</time>
      </trkpt>
      <trkpt lat="44.55452" lon="0.96456">
        <ele>159.72</ele>
        <time>2014-03-09T10:08:16Z</time>
      </trkpt>
      <trkpt lat="44.5546" lon="0.96441">
        <ele>160.68</ele>
        <time>2014-03-09T10:08:26Z</time>
      </trkpt>
      <trkpt lat="44.55468" lon="0.96434">
        <ele>162.6</ele>
        <time>2014-03-09T10:08:37Z</time>
      </trkpt>
      <trkpt lat="44.55479" lon="0.96423">
        <ele>163.56</ele>
        <time>2014-03-09T10:08:51Z</time>
      </trkpt>
      <trkpt lat="44.55473" lon="0.96388">
        <ele>165</ele>
        <time>2014-03-09T10:09:07Z</time>
      </trkpt>
      <trkpt lat="44.5547" lon="0.96381">
        <ele>165.96</ele>
        <time>2014-03-09T10:09:11Z</time>
      </trkpt>
      <trkpt lat="44.55467" lon="0.96365">
        <ele>168.85</ele>
        <time>2014-03-09T10:09:18Z</time>
      </trkpt>
      <trkpt lat="44.55465" lon="0.96342">
        <ele>173.17</ele>
        <time>2014-03-09T10:09:27Z</time>
      </trkpt>
      <trkpt lat="44.55465" lon="0.96332">
        <ele>174.62</ele>
        <time>2014-03-09T10:09:31Z</time>
      </trkpt>
      <trkpt lat="44.5547" lon="0.963">
        <ele>177.02</ele>
        <time>2014-03-09T10:09:45Z</time>
      </trkpt>
      <trkpt lat="44.55488" lon="0.96278">
        <ele>176.54</ele>
        <time>2014-03-09T10:09:58Z</time>
      </trkpt>
      <trkpt lat="44.55503" lon="0.96256">
        <ele>177.5</ele>
        <time>2014-03-09T10:10:14Z</time>
      </trkpt>
      <trkpt lat="44.55505" lon="0.96255">
        <ele>176.54</ele>
        <time>2014-03-09T10:10:29Z</time>
      </trkpt>
      <trkpt lat="44.55505" lon="0.96255">
        <ele>175.58</ele>
        <time>2014-03-09T10:10:57Z</time>
      </trkpt>
      <trkpt lat="44.55524" lon="0.96233">
        <ele>177.5</ele>
        <time>2014-03-09T10:11:10Z</time>
      </trkpt>
      <trkpt lat="44.55543" lon="0.96232">
        <ele>177.98</ele>
        <time>2014-03-09T10:11:21Z</time>
      </trkpt>
      <trkpt lat="44.55562" lon="0.96262">
        <ele>179.42</ele>
        <time>2014-03-09T10:11:34Z</time>
      </trkpt>
      <trkpt lat="44.55595" lon="0.96287">
        <ele>178.94</ele>
        <time>2014-03-09T10:11:46Z</time>
      </trkpt>
      <trkpt lat="44.55651" lon="0.96294">
        <ele>180.87</ele>
        <time>2014-03-09T10:12:04Z</time>
      </trkpt>
      <trkpt lat="44.55684" lon="0.96307">
        <ele>181.83</ele>
        <time>2014-03-09T10:12:17Z</time>
      </trkpt>
      <trkpt lat="44.55714" lon="0.96318">
        <ele>183.27</ele>
        <time>2014-03-09T10:12:29Z</time>
      </trkpt>
      <trkpt lat="44.55723" lon="0.96326">
        <ele>183.75</ele>
        <time>2014-03-09T10:12:36Z</time>
      </trkpt>
      <trkpt lat="44.55723" lon="0.96333">
        <ele>183.27</ele>
        <time>2014-03-09T10:12:48Z</time>
      </trkpt>
      <trkpt lat="44.55735" lon="0.96362">
        <ele>185.19</ele>
        <time>2014-03-09T10:13:01Z</time>
      </trkpt>
      <trkpt lat="44.55754" lon="0.96397">
        <ele>189.04</ele>
        <time>2014-03-09T10:13:17Z</time>
      </trkpt>
      <trkpt lat="44.5577" lon="0.96429">
        <ele>193.36</ele>
        <time>2014-03-09T10:13:32Z</time>
      </trkpt>
      <trkpt lat="44.55781" lon="0.96452">
        <ele>196.25</ele>
        <time>2014-03-09T10:13:44Z</time>
      </trkpt>
      <trkpt lat="44.55794" lon="0.96486">
        <ele>199.13</ele>
        <time>2014-03-09T10:14:01Z</time>
      </trkpt>
      <trkpt lat="44.55808" lon="0.96519">
        <ele>202.01</ele>
        <time>2014-03-09T10:14:17Z</time>
      </trkpt>
      <trkpt lat="44.55827" lon="0.96548">
        <ele>203.46</ele>
        <time>2014-03-09T10:14:33Z</time>
      </trkpt>
      <trkpt lat="44.55839" lon="0.96557">
        <ele>205.38</ele>
        <time>2014-03-09T10:14:41Z</time>
      </trkpt>
      <trkpt lat="44.55852" lon="0.96579">
        <ele>205.38</ele>
        <time>2014-03-09T10:14:53Z</time>
      </trkpt>
      <trkpt lat="44.55876" lon="0.96589">
        <ele>209.22</ele>
        <time>2014-03-09T10:15:07Z</time>
      </trkpt>
      <trkpt lat="44.55886" lon="0.96592">
        <ele>211.15</ele>
        <time>2014-03-09T10:15:12Z</time>
      </trkpt>
      <trkpt lat="44.55893" lon="0.96595">
        <ele>212.59</ele>
        <time>2014-03-09T10:15:16Z</time>
      </trkpt>
      <trkpt lat="44.55922" lon="0.96614">
        <ele>221.24</ele>
        <time>2014-03-09T10:15:31Z</time>
      </trkpt>
      <trkpt lat="44.55936" lon="0.96631">
        <ele>225.09</ele>
        <time>2014-03-09T10:15:41Z</time>
      </trkpt>
      <trkpt lat="44.55944" lon="0.96635">
        <ele>226.53</ele>
        <time>2014-03-09T10:15:46Z</time>
      </trkpt>
      <trkpt lat="44.55955" lon="0.96639">
        <ele>228.93</ele>
        <time>2014-03-09T10:15:53Z</time>
      </trkpt>
      <trkpt lat="44.55966" lon="0.96639">
        <ele>231.81</ele>
        <time>2014-03-09T10:15:59Z</time>
      </trkpt>
      <trkpt lat="44.55988" lon="0.96627">
        <ele>232.3</ele>
        <time>2014-03-09T10:16:12Z</time>
      </trkpt>
      <trkpt lat="44.55993" lon="0.96625">
        <ele>227.49</ele>
        <time>2014-03-09T10:16:28Z</time>
      </trkpt>
      <trkpt lat="44.55992" lon="0.96624">
        <ele>226.53</ele>
        <time>2014-03-09T10:16:46Z</time>
      </trkpt>
      <trkpt lat="44.55992" lon="0.96624">
        <ele>224.61</ele>
        <time>2014-03-09T10:17:12Z</time>
      </trkpt>
      <trkpt lat="44.55995" lon="0.96621">
        <ele>226.05</ele>
        <time>2014-03-09T10:17:28Z</time>
      </trkpt>
      <trkpt lat="44.55997" lon="0.96633">
        <ele>226.53</ele>
        <time>2014-03-09T10:17:33Z</time>
      </trkpt>
      <trkpt lat="44.56018" lon="0.96683">
        <ele>228.93</ele>
        <time>2014-03-09T10:17:47Z</time>
      </trkpt>
      <trkpt lat="44.56036" lon="0.96713">
        <ele>229.41</ele>
        <time>2014-03-09T10:17:57Z</time>
      </trkpt>
      <trkpt lat="44.56059" lon="0.96747">
        <ele>228.45</ele>
        <time>2014-03-09T10:18:09Z</time>
      </trkpt>
      <trkpt lat="44.56058" lon="0.96771">
        <ele>227.01</ele>
        <time>2014-03-09T10:18:14Z</time>
      </trkpt>
      <trkpt lat="44.56062" lon="0.96797">
        <ele>224.12</ele>
        <time>2014-03-09T10:18:18Z</time>
      </trkpt>
      <trkpt lat="44.56074" lon="0.96823">
        <ele>221.72</ele>
        <time>2014-03-09T10:18:22Z</time>
      </trkpt>
      <trkpt lat="44.56114" lon="0.96867">
        <ele>214.99</ele>
        <time>2014-03-09T10:18:30Z</time>
      </trkpt>
      <trkpt lat="44.56125" lon="0.96881">
        <ele>213.07</ele>
        <time>2014-03-09T10:18:32Z</time>
      </trkpt>
      <trkpt lat="44.56152" lon="0.9691">
        <ele>212.59</ele>
        <time>2014-03-09T10:18:38Z</time>
      </trkpt>
      <trkpt lat="44.56153" lon="0.96927">
        <ele>211.15</ele>
        <time>2014-03-09T10:18:42Z</time>
      </trkpt>
      <trkpt lat="44.56127" lon="0.97016">
        <ele>205.86</ele>
        <time>2014-03-09T10:18:59Z</time>
      </trkpt>
      <trkpt lat="44.56107" lon="0.97086">
        <ele>206.34</ele>
        <time>2014-03-09T10:19:15Z</time>
      </trkpt>
      <trkpt lat="44.56086" lon="0.97179">
        <ele>204.42</ele>
        <time>2014-03-09T10:19:32Z</time>
      </trkpt>
      <trkpt lat="44.5608" lon="0.97197">
        <ele>204.42</ele>
        <time>2014-03-09T10:19:35Z</time>
      </trkpt>
      <trkpt lat="44.56069" lon="0.97215">
        <ele>203.46</ele>
        <time>2014-03-09T10:19:39Z</time>
      </trkpt>
      <trkpt lat="44.56006" lon="0.97298">
        <ele>200.09</ele>
        <time>2014-03-09T10:19:57Z</time>
      </trkpt>
      <trkpt lat="44.55943" lon="0.97379">
        <ele>198.65</ele>
        <time>2014-03-09T10:20:15Z</time>
      </trkpt>
      <trkpt lat="44.55944" lon="0.97395">
        <ele>198.65</ele>
        <time>2014-03-09T10:20:19Z</time>
      </trkpt>
      <trkpt lat="44.55952" lon="0.97417">
        <ele>200.09</ele>
        <time>2014-03-09T10:20:24Z</time>
      </trkpt>
      <trkpt lat="44.5596" lon="0.97469">
        <ele>201.05</ele>
        <time>2014-03-09T10:20:35Z</time>
      </trkpt>
      <trkpt lat="44.55968" lon="0.97489">
        <ele>200.57</ele>
        <time>2014-03-09T10:20:39Z</time>
      </trkpt>
      <trkpt lat="44.56015" lon="0.97569">
        <ele>200.57</ele>
        <time>2014-03-09T10:20:55Z</time>
      </trkpt>
      <trkpt lat="44.56018" lon="0.97574">
        <ele>200.57</ele>
        <time>2014-03-09T10:20:56Z</time>
      </trkpt>
      <trkpt lat="44.56056" lon="0.9764">
        <ele>202.01</ele>
        <time>2014-03-09T10:21:12Z</time>
      </trkpt>
      <trkpt lat="44.56094" lon="0.97714">
        <ele>204.9</ele>
        <time>2014-03-09T10:21:26Z</time>
      </trkpt>
      <trkpt lat="44.56131" lon="0.97788">
        <ele>209.22</ele>
        <time>2014-03-09T10:21:43Z</time>
      </trkpt>
      <trkpt lat="44.56161" lon="0.97863">
        <ele>214.51</ele>
        <time>2014-03-09T10:21:59Z</time>
      </trkpt>
      <trkpt lat="44.56187" lon="0.97906">
        <ele>216.91</ele>
        <time>2014-03-09T10:22:11Z</time>
      </trkpt>
      <trkpt lat="44.56204" lon="0.97928">
        <ele>218.36</ele>
        <time>2014-03-09T10:22:21Z</time>
      </trkpt>
      <trkpt lat="44.56214" lon="0.97926">
        <ele>218.84</ele>
        <time>2014-03-09T10:22:28Z</time>
      </trkpt>
      <trkpt lat="44.56217" lon="0.97923">
        <ele>216.91</ele>
        <time>2014-03-09T10:22:42Z</time>
      </trkpt>
      <trkpt lat="44.56217" lon="0.97923">
        <ele>217.88</ele>
        <time>2014-03-09T10:23:07Z</time>
      </trkpt>
      <trkpt lat="44.56218" lon="0.97922">
        <ele>217.88</ele>
        <time>2014-03-09T10:23:08Z</time>
      </trkpt>
      <trkpt lat="44.56222" lon="0.97864">
        <ele>219.8</ele>
        <time>2014-03-09T10:23:21Z</time>
      </trkpt>
      <trkpt lat="44.56226" lon="0.97836">
        <ele>220.28</ele>
        <time>2014-03-09T10:23:26Z</time>
      </trkpt>
      <trkpt lat="44.56269" lon="0.97766">
        <ele>217.88</ele>
        <time>2014-03-09T10:23:40Z</time>
      </trkpt>
      <trkpt lat="44.56291" lon="0.97735">
        <ele>218.36</ele>
        <time>2014-03-09T10:23:46Z</time>
      </trkpt>
      <trkpt lat="44.56299" lon="0.97726">
        <ele>218.84</ele>
        <time>2014-03-09T10:23:48Z</time>
      </trkpt>
      <trkpt lat="44.56361" lon="0.9768">
        <ele>220.76</ele>
        <time>2014-03-09T10:24:04Z</time>
      </trkpt>
      <trkpt lat="44.56402" lon="0.97653">
        <ele>219.32</ele>
        <time>2014-03-09T10:24:16Z</time>
      </trkpt>
      <trkpt lat="44.56429" lon="0.97639">
        <ele>217.88</ele>
        <time>2014-03-09T10:24:26Z</time>
      </trkpt>
      <trkpt lat="44.56429" lon="0.97634">
        <ele>218.84</ele>
        <time>2014-03-09T10:24:41Z</time>
      </trkpt>
      <trkpt lat="44.56429" lon="0.97632">
        <ele>218.84</ele>
        <time>2014-03-09T10:24:45Z</time>
      </trkpt>
      <trkpt lat="44.56431" lon="0.97599">
        <ele>218.36</ele>
        <time>2014-03-09T10:24:55Z</time>
      </trkpt>
      <trkpt lat="44.56405" lon="0.97573">
        <ele>219.32</ele>
        <time>2014-03-09T10:25:05Z</time>
      </trkpt>
      <trkpt lat="44.56394" lon="0.97568">
        <ele>219.8</ele>
        <time>2014-03-09T10:25:08Z</time>
      </trkpt>
      <trkpt lat="44.56375" lon="0.97566">
        <ele>221.24</ele>
        <time>2014-03-09T10:25:12Z</time>
      </trkpt>
      <trkpt lat="44.56356" lon="0.97563">
        <ele>221.72</ele>
        <time>2014-03-09T10:25:16Z</time>
      </trkpt>
      <trkpt lat="44.56338" lon="0.97562">
        <ele>221.24</ele>
        <time>2014-03-09T10:25:20Z</time>
      </trkpt>
      <trkpt lat="44.56329" lon="0.97561">
        <ele>221.24</ele>
        <time>2014-03-09T10:25:22Z</time>
      </trkpt>
      <trkpt lat="44.5632" lon="0.97556">
        <ele>221.24</ele>
        <time>2014-03-09T10:25:24Z</time>
      </trkpt>
      <trkpt lat="44.56291" lon="0.97546">
        <ele>220.28</ele>
        <time>2014-03-09T10:25:32Z</time>
      </trkpt>
      <trkpt lat="44.56261" lon="0.97535">
        <ele>217.4</ele>
        <time>2014-03-09T10:25:38Z</time>
      </trkpt>
      <trkpt lat="44.56252" lon="0.97529">
        <ele>215.95</ele>
        <time>2014-03-09T10:25:40Z</time>
      </trkpt>
      <trkpt lat="44.56245" lon="0.9753">
        <ele>214.51</ele>
        <time>2014-03-09T10:25:42Z</time>
      </trkpt>
      <trkpt lat="44.56204" lon="0.97534">
        <ele>209.7</ele>
        <time>2014-03-09T10:25:50Z</time>
      </trkpt>
      <trkpt lat="44.56182" lon="0.97524">
        <ele>205.38</ele>
        <time>2014-03-09T10:25:56Z</time>
      </trkpt>
      <trkpt lat="44.56182" lon="0.97481">
        <ele>197.69</ele>
        <time>2014-03-09T10:26:04Z</time>
      </trkpt>
      <trkpt lat="44.56201" lon="0.97457">
        <ele>190.96</ele>
        <time>2014-03-09T10:26:14Z</time>
      </trkpt>
      <trkpt lat="44.56212" lon="0.97448">
        <ele>190</ele>
        <time>2014-03-09T10:26:16Z</time>
      </trkpt>
      <trkpt lat="44.56249" lon="0.97428">
        <ele>186.63</ele>
        <time>2014-03-09T10:26:22Z</time>
      </trkpt>
      <trkpt lat="44.56258" lon="0.97421">
        <ele>185.67</ele>
        <time>2014-03-09T10:26:24Z</time>
      </trkpt>
      <trkpt lat="44.56286" lon="0.97402">
        <ele>181.83</ele>
        <time>2014-03-09T10:26:29Z</time>
      </trkpt>
      <trkpt lat="44.56309" lon="0.97382">
        <ele>177.5</ele>
        <time>2014-03-09T10:26:33Z</time>
      </trkpt>
      <trkpt lat="44.56327" lon="0.9737">
        <ele>173.66</ele>
        <time>2014-03-09T10:26:36Z</time>
      </trkpt>
      <trkpt lat="44.56358" lon="0.97357">
        <ele>169.33</ele>
        <time>2014-03-09T10:26:41Z</time>
      </trkpt>
      <trkpt lat="44.5638" lon="0.97354">
        <ele>166.45</ele>
        <time>2014-03-09T10:26:45Z</time>
      </trkpt>
      <trkpt lat="44.56422" lon="0.97361">
        <ele>162.6</ele>
        <time>2014-03-09T10:26:52Z</time>
      </trkpt>
      <trkpt lat="44.56439" lon="0.97371">
        <ele>163.08</ele>
        <time>2014-03-09T10:26:55Z</time>
      </trkpt>
      <trkpt lat="44.56471" lon="0.97358">
        <ele>166.45</ele>
        <time>2014-03-09T10:27:03Z</time>
      </trkpt>
      <trkpt lat="44.56508" lon="0.97353">
        <ele>170.29</ele>
        <time>2014-03-09T10:27:15Z</time>
      </trkpt>
      <trkpt lat="44.56544" lon="0.97337">
        <ele>173.17</ele>
        <time>2014-03-09T10:27:29Z</time>
      </trkpt>
      <trkpt lat="44.5656" lon="0.97327">
        <ele>173.17</ele>
        <time>2014-03-09T10:27:34Z</time>
      </trkpt>
      <trkpt lat="44.56568" lon="0.9732">
        <ele>172.21</ele>
        <time>2014-03-09T10:27:36Z</time>
      </trkpt>
      <trkpt lat="44.56596" lon="0.97295">
        <ele>165</ele>
        <time>2014-03-09T10:27:44Z</time>
      </trkpt>
      <trkpt lat="44.56603" lon="0.97285">
        <ele>162.6</ele>
        <time>2014-03-09T10:27:46Z</time>
      </trkpt>
      <trkpt lat="44.5662" lon="0.97271">
        <ele>157.31</ele>
        <time>2014-03-09T10:27:51Z</time>
      </trkpt>
      <trkpt lat="44.56648" lon="0.97268">
        <ele>148.66</ele>
        <time>2014-03-09T10:28:00Z</time>
      </trkpt>
      <trkpt lat="44.56663" lon="0.97259">
        <ele>141.93</ele>
        <time>2014-03-09T10:28:07Z</time>
      </trkpt>
      <trkpt lat="44.56676" lon="0.97241">
        <ele>136.16</ele>
        <time>2014-03-09T10:28:17Z</time>
      </trkpt>
      <trkpt lat="44.56674" lon="0.97234">
        <ele>135.68</ele>
        <time>2014-03-09T10:28:28Z</time>
      </trkpt>
      <trkpt lat="44.56678" lon="0.97229">
        <ele>140.97</ele>
        <time>2014-03-09T10:29:03Z</time>
      </trkpt>
      <trkpt lat="44.5667" lon="0.97221">
        <ele>144.82</ele>
        <time>2014-03-09T10:29:24Z</time>
      </trkpt>
      <trkpt lat="44.56643" lon="0.97188">
        <ele>145.3</ele>
        <time>2014-03-09T10:29:35Z</time>
      </trkpt>
      <trkpt lat="44.56615" lon="0.97159">
        <ele>144.82</ele>
        <time>2014-03-09T10:29:42Z</time>
      </trkpt>
      <trkpt lat="44.56599" lon="0.97139">
        <ele>146.26</ele>
        <time>2014-03-09T10:29:46Z</time>
      </trkpt>
      <trkpt lat="44.5659" lon="0.97095">
        <ele>150.1</ele>
        <time>2014-03-09T10:29:52Z</time>
      </trkpt>
      <trkpt lat="44.56586" lon="0.97078">
        <ele>150.1</ele>
        <time>2014-03-09T10:29:54Z</time>
      </trkpt>
      <trkpt lat="44.56578" lon="0.97055">
        <ele>150.58</ele>
        <time>2014-03-09T10:29:57Z</time>
      </trkpt>
      <trkpt lat="44.56572" lon="0.9699">
        <ele>150.1</ele>
        <time>2014-03-09T10:30:03Z</time>
      </trkpt>
      <trkpt lat="44.56577" lon="0.96895">
        <ele>149.62</ele>
        <time>2014-03-09T10:30:11Z</time>
      </trkpt>
      <trkpt lat="44.56605" lon="0.96783">
        <ele>146.74</ele>
        <time>2014-03-09T10:30:21Z</time>
      </trkpt>
      <trkpt lat="44.56629" lon="0.96725">
        <ele>144.82</ele>
        <time>2014-03-09T10:30:27Z</time>
      </trkpt>
      <trkpt lat="44.56649" lon="0.96691">
        <ele>142.41</ele>
        <time>2014-03-09T10:30:31Z</time>
      </trkpt>
      <trkpt lat="44.56684" lon="0.96622">
        <ele>135.68</ele>
        <time>2014-03-09T10:30:39Z</time>
      </trkpt>
      <trkpt lat="44.56722" lon="0.96567">
        <ele>127.99</ele>
        <time>2014-03-09T10:30:48Z</time>
      </trkpt>
      <trkpt lat="44.56725" lon="0.96551">
        <ele>127.03</ele>
        <time>2014-03-09T10:30:50Z</time>
      </trkpt>
      <trkpt lat="44.56724" lon="0.96519">
        <ele>125.11</ele>
        <time>2014-03-09T10:30:54Z</time>
      </trkpt>
      <trkpt lat="44.56724" lon="0.96504">
        <ele>123.67</ele>
        <time>2014-03-09T10:30:56Z</time>
      </trkpt>
      <trkpt lat="44.56724" lon="0.9648">
        <ele>123.19</ele>
        <time>2014-03-09T10:30:59Z</time>
      </trkpt>
      <trkpt lat="44.56718" lon="0.96451">
        <ele>121.26</ele>
        <time>2014-03-09T10:31:03Z</time>
      </trkpt>
      <trkpt lat="44.56711" lon="0.96311">
        <ele>113.57</ele>
        <time>2014-03-09T10:31:20Z</time>
      </trkpt>
      <trkpt lat="44.5671" lon="0.96302">
        <ele>113.09</ele>
        <time>2014-03-09T10:31:21Z</time>
      </trkpt>
      <trkpt lat="44.56721" lon="0.96191">
        <ele>110.21</ele>
        <time>2014-03-09T10:31:35Z</time>
      </trkpt>
      <trkpt lat="44.56725" lon="0.96177">
        <ele>109.73</ele>
        <time>2014-03-09T10:31:37Z</time>
      </trkpt>
      <trkpt lat="44.56776" lon="0.96094">
        <ele>108.77</ele>
        <time>2014-03-09T10:31:50Z</time>
      </trkpt>
      <trkpt lat="44.56818" lon="0.96053">
        <ele>107.32</ele>
        <time>2014-03-09T10:32:00Z</time>
      </trkpt>
      <trkpt lat="44.5682" lon="0.96052">
        <ele>107.81</ele>
        <time>2014-03-09T10:32:10Z</time>
      </trkpt>
      <trkpt lat="44.56819" lon="0.96051">
        <ele>109.73</ele>
        <time>2014-03-09T10:32:31Z</time>
      </trkpt>
      <trkpt lat="44.56819" lon="0.96049">
        <ele>110.21</ele>
        <time>2014-03-09T10:32:59Z</time>
      </trkpt>
      <trkpt lat="44.56818" lon="0.96051">
        <ele>109.73</ele>
        <time>2014-03-09T10:33:22Z</time>
      </trkpt>
      <trkpt lat="44.56816" lon="0.96055">
        <ele>109.73</ele>
        <time>2014-03-09T10:33:36Z</time>
      </trkpt>
      <trkpt lat="44.56815" lon="0.96058">
        <ele>110.69</ele>
        <time>2014-03-09T10:33:54Z</time>
      </trkpt>
      <trkpt lat="44.56815" lon="0.96058">
        <ele>109.73</ele>
        <time>2014-03-09T10:34:05Z</time>
      </trkpt>
      <trkpt lat="44.56816" lon="0.96061">
        <ele>106.36</ele>
        <time>2014-03-09T10:34:39Z</time>
      </trkpt>
      <trkpt lat="44.56815" lon="0.96059">
        <ele>107.81</ele>
        <time>2014-03-09T10:35:09Z</time>
      </trkpt>
      <trkpt lat="44.56815" lon="0.96056">
        <ele>104.92</ele>
        <time>2014-03-09T10:35:47Z</time>
      </trkpt>
      <trkpt lat="44.56816" lon="0.96057">
        <ele>106.84</ele>
        <time>2014-03-09T10:35:58Z</time>
      </trkpt>
      <trkpt lat="44.56817" lon="0.96055">
        <ele>108.29</ele>
        <time>2014-03-09T10:36:09Z</time>
      </trkpt>
      <trkpt lat="44.56817" lon="0.96056">
        <ele>109.25</ele>
        <time>2014-03-09T10:36:13Z</time>
      </trkpt>
      <trkpt lat="44.56822" lon="0.96056">
        <ele>110.69</ele>
        <time>2014-03-09T10:36:23Z</time>
      </trkpt>
      <trkpt lat="44.56844" lon="0.96054">
        <ele>111.65</ele>
        <time>2014-03-09T10:36:36Z</time>
      </trkpt>
      <trkpt lat="44.56876" lon="0.96033">
        <ele>114.05</ele>
        <time>2014-03-09T10:36:54Z</time>
      </trkpt>
      <trkpt lat="44.56898" lon="0.96014">
        <ele>116.46</ele>
        <time>2014-03-09T10:37:08Z</time>
      </trkpt>
      <trkpt lat="44.56917" lon="0.95989">
        <ele>119.34</ele>
        <time>2014-03-09T10:37:23Z</time>
      </trkpt>
      <trkpt lat="44.56936" lon="0.95953">
        <ele>120.78</ele>
        <time>2014-03-09T10:37:40Z</time>
      </trkpt>
      <trkpt lat="44.5694" lon="0.95948">
        <ele>121.26</ele>
        <time>2014-03-09T10:37:45Z</time>
      </trkpt>
      <trkpt lat="44.56941" lon="0.95957">
        <ele>121.26</ele>
        <time>2014-03-09T10:37:50Z</time>
      </trkpt>
      <trkpt lat="44.56938" lon="0.95967">
        <ele>122.22</ele>
        <time>2014-03-09T10:37:55Z</time>
      </trkpt>
      <trkpt lat="44.56935" lon="0.95975">
        <ele>122.71</ele>
        <time>2014-03-09T10:37:59Z</time>
      </trkpt>
      <trkpt lat="44.56925" lon="0.96014">
        <ele>128.47</ele>
        <time>2014-03-09T10:38:16Z</time>
      </trkpt>
      <trkpt lat="44.56913" lon="0.96051">
        <ele>134.72</ele>
        <time>2014-03-09T10:38:32Z</time>
      </trkpt>
      <trkpt lat="44.56901" lon="0.96087">
        <ele>140.97</ele>
        <time>2014-03-09T10:38:48Z</time>
      </trkpt>
      <trkpt lat="44.56901" lon="0.96106">
        <ele>142.89</ele>
        <time>2014-03-09T10:38:58Z</time>
      </trkpt>
      <trkpt lat="44.56918" lon="0.96122">
        <ele>144.34</ele>
        <time>2014-03-09T10:39:15Z</time>
      </trkpt>
      <trkpt lat="44.56937" lon="0.96142">
        <ele>150.58</ele>
        <time>2014-03-09T10:39:33Z</time>
      </trkpt>
      <trkpt lat="44.56939" lon="0.96144">
        <ele>151.06</ele>
        <time>2014-03-09T10:39:35Z</time>
      </trkpt>
      <trkpt lat="44.56943" lon="0.9616">
        <ele>152.03</ele>
        <time>2014-03-09T10:39:45Z</time>
      </trkpt>
      <trkpt lat="44.56934" lon="0.96188">
        <ele>156.83</ele>
        <time>2014-03-09T10:40:01Z</time>
      </trkpt>
      <trkpt lat="44.5692" lon="0.9621">
        <ele>161.16</ele>
        <time>2014-03-09T10:40:15Z</time>
      </trkpt>
      <trkpt lat="44.56908" lon="0.96226">
        <ele>163.08</ele>
        <time>2014-03-09T10:40:27Z</time>
      </trkpt>
      <trkpt lat="44.56893" lon="0.96248">
        <ele>167.41</ele>
        <time>2014-03-09T10:40:41Z</time>
      </trkpt>
      <trkpt lat="44.56892" lon="0.96249">
        <ele>167.89</ele>
        <time>2014-03-09T10:40:42Z</time>
      </trkpt>
      <trkpt lat="44.56888" lon="0.96267">
        <ele>169.81</ele>
        <time>2014-03-09T10:40:52Z</time>
      </trkpt>
      <trkpt lat="44.5689" lon="0.96285">
        <ele>169.81</ele>
        <time>2014-03-09T10:41:02Z</time>
      </trkpt>
      <trkpt lat="44.56894" lon="0.96293">
        <ele>169.81</ele>
        <time>2014-03-09T10:41:07Z</time>
      </trkpt>
      <trkpt lat="44.56897" lon="0.96302">
        <ele>171.25</ele>
        <time>2014-03-09T10:41:13Z</time>
      </trkpt>
      <trkpt lat="44.569" lon="0.9631">
        <ele>172.21</ele>
        <time>2014-03-09T10:41:19Z</time>
      </trkpt>
      <trkpt lat="44.56903" lon="0.96318">
        <ele>173.66</ele>
        <time>2014-03-09T10:41:24Z</time>
      </trkpt>
      <trkpt lat="44.56905" lon="0.96324">
        <ele>174.14</ele>
        <time>2014-03-09T10:41:28Z</time>
      </trkpt>
      <trkpt lat="44.56908" lon="0.96344">
        <ele>176.54</ele>
        <time>2014-03-09T10:41:41Z</time>
      </trkpt>
      <trkpt lat="44.5691" lon="0.96373">
        <ele>179.42</ele>
        <time>2014-03-09T10:41:57Z</time>
      </trkpt>
      <trkpt lat="44.56911" lon="0.96386">
        <ele>182.31</ele>
        <time>2014-03-09T10:42:04Z</time>
      </trkpt>
      <trkpt lat="44.56911" lon="0.96392">
        <ele>183.27</ele>
        <time>2014-03-09T10:42:07Z</time>
      </trkpt>
      <trkpt lat="44.56915" lon="0.96411">
        <ele>185.67</ele>
        <time>2014-03-09T10:42:18Z</time>
      </trkpt>
      <trkpt lat="44.5692" lon="0.96446">
        <ele>188.56</ele>
        <time>2014-03-09T10:42:35Z</time>
      </trkpt>
      <trkpt lat="44.56927" lon="0.96475">
        <ele>191.92</ele>
        <time>2014-03-09T10:42:50Z</time>
      </trkpt>
      <trkpt lat="44.56928" lon="0.96477">
        <ele>191.92</ele>
        <time>2014-03-09T10:42:51Z</time>
      </trkpt>
      <trkpt lat="44.56937" lon="0.96509">
        <ele>193.84</ele>
        <time>2014-03-09T10:43:07Z</time>
      </trkpt>
      <trkpt lat="44.56952" lon="0.96539">
        <ele>201.05</ele>
        <time>2014-03-09T10:43:25Z</time>
      </trkpt>
      <trkpt lat="44.56964" lon="0.96567">
        <ele>204.42</ele>
        <time>2014-03-09T10:43:41Z</time>
      </trkpt>
      <trkpt lat="44.56974" lon="0.96595">
        <ele>204.9</ele>
        <time>2014-03-09T10:43:56Z</time>
      </trkpt>
      <trkpt lat="44.5699" lon="0.96622">
        <ele>207.3</ele>
        <time>2014-03-09T10:44:12Z</time>
      </trkpt>
      <trkpt lat="44.57013" lon="0.96647">
        <ele>212.59</ele>
        <time>2014-03-09T10:44:30Z</time>
      </trkpt>
      <trkpt lat="44.57026" lon="0.96683">
        <ele>214.99</ele>
        <time>2014-03-09T10:44:46Z</time>
      </trkpt>
      <trkpt lat="44.57028" lon="0.96693">
        <ele>215.95</ele>
        <time>2014-03-09T10:44:50Z</time>
      </trkpt>
      <trkpt lat="44.57024" lon="0.96728">
        <ele>217.88</ele>
        <time>2014-03-09T10:45:04Z</time>
      </trkpt>
      <trkpt lat="44.57022" lon="0.96738">
        <ele>218.36</ele>
        <time>2014-03-09T10:45:08Z</time>
      </trkpt>
      <trkpt lat="44.57007" lon="0.9677">
        <ele>217.88</ele>
        <time>2014-03-09T10:45:23Z</time>
      </trkpt>
      <trkpt lat="44.56987" lon="0.96824">
        <ele>218.84</ele>
        <time>2014-03-09T10:45:42Z</time>
      </trkpt>
      <trkpt lat="44.56977" lon="0.9686">
        <ele>217.88</ele>
        <time>2014-03-09T10:45:55Z</time>
      </trkpt>
      <trkpt lat="44.56959" lon="0.96905">
        <ele>216.91</ele>
        <time>2014-03-09T10:46:08Z</time>
      </trkpt>
      <trkpt lat="44.56958" lon="0.96913">
        <ele>216.43</ele>
        <time>2014-03-09T10:46:18Z</time>
      </trkpt>
      <trkpt lat="44.56957" lon="0.96913">
        <ele>216.91</ele>
        <time>2014-03-09T10:46:37Z</time>
      </trkpt>
      <trkpt lat="44.56957" lon="0.96911">
        <ele>217.88</ele>
        <time>2014-03-09T10:47:02Z</time>
      </trkpt>
      <trkpt lat="44.56957" lon="0.96913">
        <ele>217.4</ele>
        <time>2014-03-09T10:47:22Z</time>
      </trkpt>
      <trkpt lat="44.56956" lon="0.96963">
        <ele>216.91</ele>
        <time>2014-03-09T10:47:32Z</time>
      </trkpt>
      <trkpt lat="44.5696" lon="0.97052">
        <ele>213.55</ele>
        <time>2014-03-09T10:47:43Z</time>
      </trkpt>
      <trkpt lat="44.56975" lon="0.97136">
        <ele>214.03</ele>
        <time>2014-03-09T10:47:58Z</time>
      </trkpt>
      <trkpt lat="44.56999" lon="0.97213">
        <ele>212.11</ele>
        <time>2014-03-09T10:48:13Z</time>
      </trkpt>
      <trkpt lat="44.57023" lon="0.97316">
        <ele>205.86</ele>
        <time>2014-03-09T10:48:25Z</time>
      </trkpt>
      <trkpt lat="44.57045" lon="0.97428">
        <ele>205.86</ele>
        <time>2014-03-09T10:48:37Z</time>
      </trkpt>
      <trkpt lat="44.57053" lon="0.97514">
        <ele>213.55</ele>
        <time>2014-03-09T10:48:53Z</time>
      </trkpt>
      <trkpt lat="44.57043" lon="0.97567">
        <ele>217.4</ele>
        <time>2014-03-09T10:49:05Z</time>
      </trkpt>
      <trkpt lat="44.57025" lon="0.97642">
        <ele>214.03</ele>
        <time>2014-03-09T10:49:20Z</time>
      </trkpt>
      <trkpt lat="44.5702" lon="0.97679">
        <ele>211.63</ele>
        <time>2014-03-09T10:49:24Z</time>
      </trkpt>
      <trkpt lat="44.57023" lon="0.97714">
        <ele>208.74</ele>
        <time>2014-03-09T10:49:27Z</time>
      </trkpt>
      <trkpt lat="44.57025" lon="0.97826">
        <ele>199.13</ele>
        <time>2014-03-09T10:49:35Z</time>
      </trkpt>
      <trkpt lat="44.57019" lon="0.97876">
        <ele>193.84</ele>
        <time>2014-03-09T10:49:39Z</time>
      </trkpt>
      <trkpt lat="44.57038" lon="0.97966">
        <ele>185.67</ele>
        <time>2014-03-09T10:49:46Z</time>
      </trkpt>
      <trkpt lat="44.57043" lon="0.9798">
        <ele>185.19</ele>
        <time>2014-03-09T10:49:47Z</time>
      </trkpt>
      <trkpt lat="44.57046" lon="0.98062">
        <ele>184.23</ele>
        <time>2014-03-09T10:49:54Z</time>
      </trkpt>
      <trkpt lat="44.57056" lon="0.98166">
        <ele>187.11</ele>
        <time>2014-03-09T10:50:08Z</time>
      </trkpt>
      <trkpt lat="44.57052" lon="0.98194">
        <ele>187.59</ele>
        <time>2014-03-09T10:50:13Z</time>
      </trkpt>
      <trkpt lat="44.57065" lon="0.98207">
        <ele>186.63</ele>
        <time>2014-03-09T10:50:17Z</time>
      </trkpt>
      <trkpt lat="44.57126" lon="0.98212">
        <ele>178.94</ele>
        <time>2014-03-09T10:50:26Z</time>
      </trkpt>
      <trkpt lat="44.57134" lon="0.98199">
        <ele>177.98</ele>
        <time>2014-03-09T10:50:30Z</time>
      </trkpt>
      <trkpt lat="44.57142" lon="0.98133">
        <ele>177.02</ele>
        <time>2014-03-09T10:50:42Z</time>
      </trkpt>
      <trkpt lat="44.57146" lon="0.98124">
        <ele>176.54</ele>
        <time>2014-03-09T10:50:44Z</time>
      </trkpt>
      <trkpt lat="44.5716" lon="0.98113">
        <ele>175.1</ele>
        <time>2014-03-09T10:50:48Z</time>
      </trkpt>
      <trkpt lat="44.57169" lon="0.98107">
        <ele>173.66</ele>
        <time>2014-03-09T10:50:51Z</time>
      </trkpt>
      <trkpt lat="44.57156" lon="0.98083">
        <ele>172.69</ele>
        <time>2014-03-09T10:51:00Z</time>
      </trkpt>
      <trkpt lat="44.57161" lon="0.98076">
        <ele>172.21</ele>
        <time>2014-03-09T10:51:02Z</time>
      </trkpt>
      <trkpt lat="44.57198" lon="0.98042">
        <ele>167.41</ele>
        <time>2014-03-09T10:51:09Z</time>
      </trkpt>
      <trkpt lat="44.57208" lon="0.98033">
        <ele>165.48</ele>
        <time>2014-03-09T10:51:11Z</time>
      </trkpt>
      <trkpt lat="44.57243" lon="0.98002">
        <ele>158.75</ele>
        <time>2014-03-09T10:51:20Z</time>
      </trkpt>
      <trkpt lat="44.5725" lon="0.9798">
        <ele>155.39</ele>
        <time>2014-03-09T10:51:26Z</time>
      </trkpt>
      <trkpt lat="44.57268" lon="0.97975">
        <ele>152.99</ele>
        <time>2014-03-09T10:51:29Z</time>
      </trkpt>
      <trkpt lat="44.57282" lon="0.97974">
        <ele>150.58</ele>
        <time>2014-03-09T10:51:31Z</time>
      </trkpt>
      <trkpt lat="44.57324" lon="0.97979">
        <ele>142.89</ele>
        <time>2014-03-09T10:51:37Z</time>
      </trkpt>
      <trkpt lat="44.57339" lon="0.97965">
        <ele>139.05</ele>
        <time>2014-03-09T10:51:41Z</time>
      </trkpt>
      <trkpt lat="44.57349" lon="0.97917">
        <ele>133.76</ele>
        <time>2014-03-09T10:51:46Z</time>
      </trkpt>
      <trkpt lat="44.57378" lon="0.97884">
        <ele>128.95</ele>
        <time>2014-03-09T10:51:54Z</time>
      </trkpt>
      <trkpt lat="44.57383" lon="0.9787">
        <ele>127.51</ele>
        <time>2014-03-09T10:51:59Z</time>
      </trkpt>
      <trkpt lat="44.57381" lon="0.97842">
        <ele>126.55</ele>
        <time>2014-03-09T10:52:04Z</time>
      </trkpt>
      <trkpt lat="44.5738" lon="0.97812">
        <ele>125.59</ele>
        <time>2014-03-09T10:52:08Z</time>
      </trkpt>
      <trkpt lat="44.57384" lon="0.97782">
        <ele>124.63</ele>
        <time>2014-03-09T10:52:12Z</time>
      </trkpt>
      <trkpt lat="44.57422" lon="0.97691">
        <ele>119.82</ele>
        <time>2014-03-09T10:52:25Z</time>
      </trkpt>
      <trkpt lat="44.5744" lon="0.977">
        <ele>117.42</ele>
        <time>2014-03-09T10:52:30Z</time>
      </trkpt>
      <trkpt lat="44.57484" lon="0.97822">
        <ele>116.94</ele>
        <time>2014-03-09T10:52:48Z</time>
      </trkpt>
      <trkpt lat="44.57502" lon="0.97875">
        <ele>116.46</ele>
        <time>2014-03-09T10:52:56Z</time>
      </trkpt>
      <trkpt lat="44.57514" lon="0.9788">
        <ele>115.98</ele>
        <time>2014-03-09T10:53:00Z</time>
      </trkpt>
      <trkpt lat="44.57561" lon="0.97876">
        <ele>112.13</ele>
        <time>2014-03-09T10:53:07Z</time>
      </trkpt>
      <trkpt lat="44.57584" lon="0.97841">
        <ele>110.69</ele>
        <time>2014-03-09T10:53:15Z</time>
      </trkpt>
      <trkpt lat="44.5757" lon="0.97815">
        <ele>109.25</ele>
        <time>2014-03-09T10:53:19Z</time>
      </trkpt>
      <trkpt lat="44.5753" lon="0.97713">
        <ele>108.29</ele>
        <time>2014-03-09T10:53:33Z</time>
      </trkpt>
      <trkpt lat="44.57502" lon="0.97584">
        <ele>104.44</ele>
        <time>2014-03-09T10:53:49Z</time>
      </trkpt>
      <trkpt lat="44.57502" lon="0.97456">
        <ele>100.11</ele>
        <time>2014-03-09T10:54:02Z</time>
      </trkpt>
      <trkpt lat="44.57486" lon="0.97333">
        <ele>98.67</ele>
        <time>2014-03-09T10:54:16Z</time>
      </trkpt>
      <trkpt lat="44.57476" lon="0.97277">
        <ele>99.15</ele>
        <time>2014-03-09T10:54:26Z</time>
      </trkpt>
      <trkpt lat="44.57488" lon="0.97274">
        <ele>99.15</ele>
        <time>2014-03-09T10:54:30Z</time>
      </trkpt>
      <trkpt lat="44.5752" lon="0.9728">
        <ele>99.63</ele>
        <time>2014-03-09T10:54:37Z</time>
      </trkpt>
      <trkpt lat="44.57541" lon="0.97274">
        <ele>100.11</ele>
        <time>2014-03-09T10:54:42Z</time>
      </trkpt>
      <trkpt lat="44.57579" lon="0.97238">
        <ele>103</ele>
        <time>2014-03-09T10:54:54Z</time>
      </trkpt>
      <trkpt lat="44.57576" lon="0.97229">
        <ele>102.52</ele>
        <time>2014-03-09T10:55:04Z</time>
      </trkpt>
      <trkpt lat="44.57576" lon="0.97228">
        <ele>103</ele>
        <time>2014-03-09T10:55:33Z</time>
      </trkpt>
    </trkseg>
  </trk>
</gpx>